
<gpx xmlns="http://www.topografix.com/GPX/1/1" xmlns:gpxx="http://www.garmin.com/xmlschemas/GpxExtensions/v3" xmlns:xsi="http://www.w3.org/2001/XMLSchema-instance" version="1.1" creator="Adze - http://kobotsw.com/apps/adze" xsi:schemaLocation="http://www.topografix.com/GPX/1/1 http://www.topografix.com/GPX/1/1/gpx.xsd http://www.garmin.com/xmlschemas/GpxExtensions/v3 http://www.garmin.com/xmlschemas/GpxExtensionsv3.xsd">
    <metadata>
        <name>Untitled Document</name>
        <link href="http://www.garmin.com"></link>
        <time>2018-01-31T07:00:20.733Z</time>
    </metadata>
    <wpt lon="101.066511" lat="13.029568">
        <time>2016-06-10T06:34:18Z</time>
        <name>Phanhin Regent</name>
        <sym>Lodging</sym>
        <extensions>
            <gpxx:WaypointExtension xmlns:gpxx="http://www.garmin.com/xmlschemas/GpxExtensions/v3">
                <gpxx:DisplayMode>SymbolAndName</gpxx:DisplayMode>
            </gpxx:WaypointExtension>
        </extensions>
    </wpt>
    <wpt lon="101.021252" lat="13.035455">
        <ele>72.000000</ele>
        <time>2017-04-30T04:07:32Z</time>
        <name>Water Sunday</name>
        <sym>Drinking Water</sym>
        <extensions>
            <gpxx:WaypointExtension xmlns:gpxx="http://www.garmin.com/xmlschemas/GpxExtensions/v3">
                <gpxx:DisplayMode>SymbolAndName</gpxx:DisplayMode>
            </gpxx:WaypointExtension>
        </extensions>
    </wpt>
    <trk>
        <name>Sunday</name>
        <extensions>
            <gpxx:TrackExtension xmlns:gpxx="http://www.garmin.com/xmlschemas/GpxExtensions/v3">
                <gpxx:DisplayColor>Green</gpxx:DisplayColor>
            </gpxx:TrackExtension>
        </extensions>
        <trkseg>
            <trkpt lon="101.066348" lat="13.029923">
                <ele>129.430000</ele>
                <time>2017-04-30T03:06:19Z</time>
            </trkpt>
            <trkpt lon="101.066357" lat="13.029969">
                <ele>128.950000</ele>
                <time>2017-04-30T03:06:32Z</time>
            </trkpt>
            <trkpt lon="101.066394" lat="13.029979">
                <ele>129.430000</ele>
                <time>2017-04-30T03:06:47Z</time>
            </trkpt>
            <trkpt lon="101.066768" lat="13.029940">
                <ele>128.950000</ele>
                <time>2017-04-30T03:06:58Z</time>
            </trkpt>
            <trkpt lon="101.066877" lat="13.029910">
                <ele>128.950000</ele>
                <time>2017-04-30T03:07:01Z</time>
            </trkpt>
            <trkpt lon="101.066915" lat="13.029535">
                <ele>128.470000</ele>
                <time>2017-04-30T03:07:10Z</time>
            </trkpt>
            <trkpt lon="101.066917" lat="13.028990">
                <ele>127.510000</ele>
                <time>2017-04-30T03:07:24Z</time>
            </trkpt>
            <trkpt lon="101.066875" lat="13.028872">
                <ele>127.030000</ele>
                <time>2017-04-30T03:07:28Z</time>
            </trkpt>
            <trkpt lon="101.066754" lat="13.028650">
                <ele>125.590000</ele>
                <time>2017-04-30T03:07:33Z</time>
            </trkpt>
            <trkpt lon="101.066664" lat="13.028449">
                <ele>125.110000</ele>
                <time>2017-04-30T03:07:37Z</time>
            </trkpt>
            <trkpt lon="101.066434" lat="13.027858">
                <ele>124.630000</ele>
                <time>2017-04-30T03:07:52Z</time>
            </trkpt>
            <trkpt lon="101.066015" lat="13.027484">
                <ele>126.070000</ele>
                <time>2017-04-30T03:08:07Z</time>
            </trkpt>
            <trkpt lon="101.065909" lat="13.027397">
                <ele>127.510000</ele>
                <time>2017-04-30T03:08:13Z</time>
            </trkpt>
            <trkpt lon="101.065865" lat="13.027377">
                <ele>127.990000</ele>
                <time>2017-04-30T03:08:16Z</time>
            </trkpt>
            <trkpt lon="101.065829" lat="13.027398">
                <ele>128.470000</ele>
                <time>2017-04-30T03:08:18Z</time>
            </trkpt>
            <trkpt lon="101.065807" lat="13.027424">
                <ele>128.470000</ele>
                <time>2017-04-30T03:08:19Z</time>
            </trkpt>
            <trkpt lon="101.065789" lat="13.027446">
                <ele>128.470000</ele>
                <time>2017-04-30T03:08:20Z</time>
            </trkpt>
            <trkpt lon="101.065765" lat="13.027473">
                <ele>127.990000</ele>
                <time>2017-04-30T03:08:21Z</time>
            </trkpt>
            <trkpt lon="101.065274" lat="13.027819">
                <ele>127.510000</ele>
                <time>2017-04-30T03:08:33Z</time>
            </trkpt>
            <trkpt lon="101.064502" lat="13.027971">
                <ele>126.070000</ele>
                <time>2017-04-30T03:08:46Z</time>
            </trkpt>
            <trkpt lon="101.064435" lat="13.027958">
                <ele>126.070000</ele>
                <time>2017-04-30T03:08:47Z</time>
            </trkpt>
            <trkpt lon="101.064018" lat="13.027910">
                <ele>125.110000</ele>
                <time>2017-04-30T03:08:53Z</time>
            </trkpt>
            <trkpt lon="101.063969" lat="13.027896">
                <ele>124.630000</ele>
                <time>2017-04-30T03:08:54Z</time>
            </trkpt>
            <trkpt lon="101.063849" lat="13.027849">
                <ele>124.150000</ele>
                <time>2017-04-30T03:08:57Z</time>
            </trkpt>
            <trkpt lon="101.063805" lat="13.027833">
                <ele>124.150000</ele>
                <time>2017-04-30T03:08:58Z</time>
            </trkpt>
            <trkpt lon="101.063720" lat="13.027803">
                <ele>123.670000</ele>
                <time>2017-04-30T03:09:00Z</time>
            </trkpt>
            <trkpt lon="101.063679" lat="13.027796">
                <ele>123.670000</ele>
                <time>2017-04-30T03:09:01Z</time>
            </trkpt>
            <trkpt lon="101.063635" lat="13.027795">
                <ele>123.670000</ele>
                <time>2017-04-30T03:09:02Z</time>
            </trkpt>
            <trkpt lon="101.062838" lat="13.027826">
                <ele>122.220000</ele>
                <time>2017-04-30T03:09:19Z</time>
            </trkpt>
            <trkpt lon="101.062043" lat="13.027858">
                <ele>121.260000</ele>
                <time>2017-04-30T03:09:35Z</time>
            </trkpt>
            <trkpt lon="101.061207" lat="13.027944">
                <ele>121.260000</ele>
                <time>2017-04-30T03:09:53Z</time>
            </trkpt>
            <trkpt lon="101.060479" lat="13.028167">
                <ele>120.300000</ele>
                <time>2017-04-30T03:10:10Z</time>
            </trkpt>
            <trkpt lon="101.060434" lat="13.028178">
                <ele>120.300000</ele>
                <time>2017-04-30T03:10:11Z</time>
            </trkpt>
            <trkpt lon="101.060386" lat="13.028181">
                <ele>120.300000</ele>
                <time>2017-04-30T03:10:12Z</time>
            </trkpt>
            <trkpt lon="101.060338" lat="13.028174">
                <ele>120.300000</ele>
                <time>2017-04-30T03:10:13Z</time>
            </trkpt>
            <trkpt lon="101.060291" lat="13.028161">
                <ele>119.820000</ele>
                <time>2017-04-30T03:10:14Z</time>
            </trkpt>
            <trkpt lon="101.060241" lat="13.028145">
                <ele>119.340000</ele>
                <time>2017-04-30T03:10:15Z</time>
            </trkpt>
            <trkpt lon="101.060073" lat="13.028106">
                <ele>118.380000</ele>
                <time>2017-04-30T03:10:18Z</time>
            </trkpt>
            <trkpt lon="101.059653" lat="13.028063">
                <ele>115.980000</ele>
                <time>2017-04-30T03:10:24Z</time>
            </trkpt>
            <trkpt lon="101.059503" lat="13.028042">
                <ele>115.010000</ele>
                <time>2017-04-30T03:10:26Z</time>
            </trkpt>
            <trkpt lon="101.059354" lat="13.027998">
                <ele>114.050000</ele>
                <time>2017-04-30T03:10:28Z</time>
            </trkpt>
            <trkpt lon="101.059125" lat="13.027904">
                <ele>112.130000</ele>
                <time>2017-04-30T03:10:31Z</time>
            </trkpt>
            <trkpt lon="101.058902" lat="13.027797">
                <ele>111.170000</ele>
                <time>2017-04-30T03:10:34Z</time>
            </trkpt>
            <trkpt lon="101.058449" lat="13.027595">
                <ele>107.810000</ele>
                <time>2017-04-30T03:10:40Z</time>
            </trkpt>
            <trkpt lon="101.058237" lat="13.027534">
                <ele>105.880000</ele>
                <time>2017-04-30T03:10:43Z</time>
            </trkpt>
            <trkpt lon="101.057405" lat="13.027322">
                <ele>103.960000</ele>
                <time>2017-04-30T03:10:55Z</time>
            </trkpt>
            <trkpt lon="101.057194" lat="13.027231">
                <ele>105.400000</ele>
                <time>2017-04-30T03:10:59Z</time>
            </trkpt>
            <trkpt lon="101.056989" lat="13.027143">
                <ele>107.810000</ele>
                <time>2017-04-30T03:11:08Z</time>
            </trkpt>
            <trkpt lon="101.056952" lat="13.027150">
                <ele>107.810000</ele>
                <time>2017-04-30T03:11:10Z</time>
            </trkpt>
            <trkpt lon="101.056928" lat="13.027160">
                <ele>107.810000</ele>
                <time>2017-04-30T03:11:11Z</time>
            </trkpt>
            <trkpt lon="101.056900" lat="13.027175">
                <ele>107.810000</ele>
                <time>2017-04-30T03:11:12Z</time>
            </trkpt>
            <trkpt lon="101.056869" lat="13.027192">
                <ele>107.810000</ele>
                <time>2017-04-30T03:11:13Z</time>
            </trkpt>
            <trkpt lon="101.056835" lat="13.027207">
                <ele>107.320000</ele>
                <time>2017-04-30T03:11:14Z</time>
            </trkpt>
            <trkpt lon="101.056796" lat="13.027223">
                <ele>107.320000</ele>
                <time>2017-04-30T03:11:15Z</time>
            </trkpt>
            <trkpt lon="101.056040" lat="13.027518">
                <ele>103.960000</ele>
                <time>2017-04-30T03:11:29Z</time>
            </trkpt>
            <trkpt lon="101.055916" lat="13.027541">
                <ele>103.480000</ele>
                <time>2017-04-30T03:11:31Z</time>
            </trkpt>
            <trkpt lon="101.055544" lat="13.027566">
                <ele>101.560000</ele>
                <time>2017-04-30T03:11:37Z</time>
            </trkpt>
            <trkpt lon="101.054647" lat="13.027545">
                <ele>101.560000</ele>
                <time>2017-04-30T03:11:55Z</time>
            </trkpt>
            <trkpt lon="101.054599" lat="13.027537">
                <ele>101.560000</ele>
                <time>2017-04-30T03:11:56Z</time>
            </trkpt>
            <trkpt lon="101.054550" lat="13.027524">
                <ele>101.560000</ele>
                <time>2017-04-30T03:11:57Z</time>
            </trkpt>
            <trkpt lon="101.054505" lat="13.027507">
                <ele>102.040000</ele>
                <time>2017-04-30T03:11:58Z</time>
            </trkpt>
            <trkpt lon="101.054464" lat="13.027488">
                <ele>100.600000</ele>
                <time>2017-04-30T03:11:59Z</time>
            </trkpt>
            <trkpt lon="101.054424" lat="13.027463">
                <ele>103.480000</ele>
                <time>2017-04-30T03:12:00Z</time>
            </trkpt>
            <trkpt lon="101.054388" lat="13.027435">
                <ele>102.520000</ele>
                <time>2017-04-30T03:12:01Z</time>
            </trkpt>
            <trkpt lon="101.054353" lat="13.027404">
                <ele>102.520000</ele>
                <time>2017-04-30T03:12:02Z</time>
            </trkpt>
            <trkpt lon="101.054281" lat="13.027347">
                <ele>103.000000</ele>
                <time>2017-04-30T03:12:04Z</time>
            </trkpt>
            <trkpt lon="101.053782" lat="13.027053">
                <ele>104.440000</ele>
                <time>2017-04-30T03:12:20Z</time>
            </trkpt>
            <trkpt lon="101.053510" lat="13.026995">
                <ele>104.920000</ele>
                <time>2017-04-30T03:12:32Z</time>
            </trkpt>
            <trkpt lon="101.053458" lat="13.026820">
                <ele>105.400000</ele>
                <time>2017-04-30T03:12:41Z</time>
            </trkpt>
            <trkpt lon="101.053673" lat="13.026502">
                <ele>106.360000</ele>
                <time>2017-04-30T03:12:57Z</time>
            </trkpt>
            <trkpt lon="101.054008" lat="13.026114">
                <ele>107.810000</ele>
                <time>2017-04-30T03:13:17Z</time>
            </trkpt>
            <trkpt lon="101.054281" lat="13.025819">
                <ele>108.770000</ele>
                <time>2017-04-30T03:13:33Z</time>
            </trkpt>
            <trkpt lon="101.054472" lat="13.025469">
                <ele>109.730000</ele>
                <time>2017-04-30T03:13:50Z</time>
            </trkpt>
            <trkpt lon="101.054508" lat="13.025341">
                <ele>110.210000</ele>
                <time>2017-04-30T03:13:59Z</time>
            </trkpt>
            <trkpt lon="101.054537" lat="13.025215">
                <ele>110.210000</ele>
                <time>2017-04-30T03:14:12Z</time>
            </trkpt>
            <trkpt lon="101.054590" lat="13.025016">
                <ele>110.690000</ele>
                <time>2017-04-30T03:14:30Z</time>
            </trkpt>
            <trkpt lon="101.054614" lat="13.024880">
                <ele>111.170000</ele>
                <time>2017-04-30T03:14:42Z</time>
            </trkpt>
            <trkpt lon="101.054646" lat="13.024605">
                <ele>112.610000</ele>
                <time>2017-04-30T03:14:58Z</time>
            </trkpt>
            <trkpt lon="101.054692" lat="13.024312">
                <ele>113.090000</ele>
                <time>2017-04-30T03:15:14Z</time>
            </trkpt>
            <trkpt lon="101.054764" lat="13.023886">
                <ele>114.530000</ele>
                <time>2017-04-30T03:15:34Z</time>
            </trkpt>
            <trkpt lon="101.054839" lat="13.023420">
                <ele>115.500000</ele>
                <time>2017-04-30T03:15:51Z</time>
            </trkpt>
            <trkpt lon="101.054896" lat="13.022942">
                <ele>116.940000</ele>
                <time>2017-04-30T03:16:08Z</time>
            </trkpt>
            <trkpt lon="101.054899" lat="13.022379">
                <ele>117.900000</ele>
                <time>2017-04-30T03:16:27Z</time>
            </trkpt>
            <trkpt lon="101.054863" lat="13.021894">
                <ele>119.340000</ele>
                <time>2017-04-30T03:16:44Z</time>
            </trkpt>
            <trkpt lon="101.054797" lat="13.021487">
                <ele>120.300000</ele>
                <time>2017-04-30T03:16:58Z</time>
            </trkpt>
            <trkpt lon="101.054958" lat="13.021298">
                <ele>120.780000</ele>
                <time>2017-04-30T03:17:08Z</time>
            </trkpt>
            <trkpt lon="101.055155" lat="13.021234">
                <ele>121.260000</ele>
                <time>2017-04-30T03:17:15Z</time>
            </trkpt>
            <trkpt lon="101.055153" lat="13.021040">
                <ele>121.260000</ele>
                <time>2017-04-30T03:17:22Z</time>
            </trkpt>
            <trkpt lon="101.055065" lat="13.020639">
                <ele>122.710000</ele>
                <time>2017-04-30T03:17:39Z</time>
            </trkpt>
            <trkpt lon="101.054953" lat="13.020257">
                <ele>123.670000</ele>
                <time>2017-04-30T03:17:55Z</time>
            </trkpt>
            <trkpt lon="101.054909" lat="13.019805">
                <ele>123.670000</ele>
                <time>2017-04-30T03:18:11Z</time>
            </trkpt>
            <trkpt lon="101.055181" lat="13.019604">
                <ele>124.630000</ele>
                <time>2017-04-30T03:18:24Z</time>
            </trkpt>
            <trkpt lon="101.055393" lat="13.019458">
                <ele>125.590000</ele>
                <time>2017-04-30T03:18:37Z</time>
            </trkpt>
            <trkpt lon="101.055674" lat="13.019289">
                <ele>126.550000</ele>
                <time>2017-04-30T03:18:51Z</time>
            </trkpt>
            <trkpt lon="101.055822" lat="13.019083">
                <ele>127.030000</ele>
                <time>2017-04-30T03:19:03Z</time>
            </trkpt>
            <trkpt lon="101.055735" lat="13.018748">
                <ele>128.470000</ele>
                <time>2017-04-30T03:19:21Z</time>
            </trkpt>
            <trkpt lon="101.055657" lat="13.018448">
                <ele>129.430000</ele>
                <time>2017-04-30T03:19:38Z</time>
            </trkpt>
            <trkpt lon="101.055602" lat="13.018185">
                <ele>130.880000</ele>
                <time>2017-04-30T03:19:54Z</time>
            </trkpt>
            <trkpt lon="101.055537" lat="13.017933">
                <ele>131.840000</ele>
                <time>2017-04-30T03:20:09Z</time>
            </trkpt>
            <trkpt lon="101.055504" lat="13.017781">
                <ele>132.800000</ele>
                <time>2017-04-30T03:20:19Z</time>
            </trkpt>
            <trkpt lon="101.055480" lat="13.017665">
                <ele>133.280000</ele>
                <time>2017-04-30T03:20:27Z</time>
            </trkpt>
            <trkpt lon="101.055403" lat="13.017378">
                <ele>134.720000</ele>
                <time>2017-04-30T03:20:46Z</time>
            </trkpt>
            <trkpt lon="101.055343" lat="13.017138">
                <ele>136.160000</ele>
                <time>2017-04-30T03:21:02Z</time>
            </trkpt>
            <trkpt lon="101.055340" lat="13.017085">
                <ele>136.640000</ele>
                <time>2017-04-30T03:21:05Z</time>
            </trkpt>
            <trkpt lon="101.055301" lat="13.017005">
                <ele>137.610000</ele>
                <time>2017-04-30T03:21:10Z</time>
            </trkpt>
            <trkpt lon="101.054945" lat="13.017057">
                <ele>138.090000</ele>
                <time>2017-04-30T03:21:24Z</time>
            </trkpt>
            <trkpt lon="101.054483" lat="13.017023">
                <ele>138.570000</ele>
                <time>2017-04-30T03:21:39Z</time>
            </trkpt>
            <trkpt lon="101.054086" lat="13.016882">
                <ele>139.530000</ele>
                <time>2017-04-30T03:21:52Z</time>
            </trkpt>
            <trkpt lon="101.053625" lat="13.016706">
                <ele>141.450000</ele>
                <time>2017-04-30T03:22:06Z</time>
            </trkpt>
            <trkpt lon="101.053179" lat="13.016547">
                <ele>142.890000</ele>
                <time>2017-04-30T03:22:20Z</time>
            </trkpt>
            <trkpt lon="101.052608" lat="13.016350">
                <ele>143.850000</ele>
                <time>2017-04-30T03:22:37Z</time>
            </trkpt>
            <trkpt lon="101.051821" lat="13.016093">
                <ele>141.450000</ele>
                <time>2017-04-30T03:22:53Z</time>
            </trkpt>
            <trkpt lon="101.051082" lat="13.015859">
                <ele>140.970000</ele>
                <time>2017-04-30T03:23:07Z</time>
            </trkpt>
            <trkpt lon="101.050661" lat="13.015684">
                <ele>140.490000</ele>
                <time>2017-04-30T03:23:15Z</time>
            </trkpt>
            <trkpt lon="101.049681" lat="13.015344">
                <ele>139.050000</ele>
                <time>2017-04-30T03:23:32Z</time>
            </trkpt>
            <trkpt lon="101.048965" lat="13.015090">
                <ele>140.490000</ele>
                <time>2017-04-30T03:23:48Z</time>
            </trkpt>
            <trkpt lon="101.048216" lat="13.014851">
                <ele>142.890000</ele>
                <time>2017-04-30T03:24:08Z</time>
            </trkpt>
            <trkpt lon="101.047648" lat="13.014828">
                <ele>143.850000</ele>
                <time>2017-04-30T03:24:24Z</time>
            </trkpt>
            <trkpt lon="101.047055" lat="13.014839">
                <ele>144.340000</ele>
                <time>2017-04-30T03:24:40Z</time>
            </trkpt>
            <trkpt lon="101.046239" lat="13.014801">
                <ele>142.410000</ele>
                <time>2017-04-30T03:24:57Z</time>
            </trkpt>
            <trkpt lon="101.045993" lat="13.014652">
                <ele>141.450000</ele>
                <time>2017-04-30T03:25:04Z</time>
            </trkpt>
            <trkpt lon="101.045417" lat="13.014279">
                <ele>141.450000</ele>
                <time>2017-04-30T03:25:19Z</time>
            </trkpt>
            <trkpt lon="101.045366" lat="13.014267">
                <ele>141.930000</ele>
                <time>2017-04-30T03:25:20Z</time>
            </trkpt>
            <trkpt lon="101.045209" lat="13.014245">
                <ele>141.450000</ele>
                <time>2017-04-30T03:25:23Z</time>
            </trkpt>
            <trkpt lon="101.045110" lat="13.014246">
                <ele>141.930000</ele>
                <time>2017-04-30T03:25:25Z</time>
            </trkpt>
            <trkpt lon="101.044615" lat="13.014286">
                <ele>141.450000</ele>
                <time>2017-04-30T03:25:35Z</time>
            </trkpt>
            <trkpt lon="101.044343" lat="13.014247">
                <ele>141.450000</ele>
                <time>2017-04-30T03:25:40Z</time>
            </trkpt>
            <trkpt lon="101.044301" lat="13.014235">
                <ele>140.970000</ele>
                <time>2017-04-30T03:25:41Z</time>
            </trkpt>
            <trkpt lon="101.044263" lat="13.014228">
                <ele>140.970000</ele>
                <time>2017-04-30T03:25:42Z</time>
            </trkpt>
            <trkpt lon="101.044064" lat="13.014262">
                <ele>139.530000</ele>
                <time>2017-04-30T03:25:51Z</time>
            </trkpt>
            <trkpt lon="101.043785" lat="13.014129">
                <ele>139.050000</ele>
                <time>2017-04-30T03:26:01Z</time>
            </trkpt>
            <trkpt lon="101.043731" lat="13.014102">
                <ele>139.050000</ele>
                <time>2017-04-30T03:26:03Z</time>
            </trkpt>
            <trkpt lon="101.043634" lat="13.014169">
                <ele>138.090000</ele>
                <time>2017-04-30T03:26:09Z</time>
            </trkpt>
            <trkpt lon="101.043528" lat="13.014568">
                <ele>135.680000</ele>
                <time>2017-04-30T03:26:21Z</time>
            </trkpt>
            <trkpt lon="101.043440" lat="13.015121">
                <ele>133.280000</ele>
                <time>2017-04-30T03:26:35Z</time>
            </trkpt>
            <trkpt lon="101.043257" lat="13.015651">
                <ele>132.320000</ele>
                <time>2017-04-30T03:26:49Z</time>
            </trkpt>
            <trkpt lon="101.043188" lat="13.016096">
                <ele>131.360000</ele>
                <time>2017-04-30T03:27:01Z</time>
            </trkpt>
            <trkpt lon="101.043093" lat="13.016479">
                <ele>130.400000</ele>
                <time>2017-04-30T03:27:11Z</time>
            </trkpt>
            <trkpt lon="101.043011" lat="13.017144">
                <ele>127.990000</ele>
                <time>2017-04-30T03:27:27Z</time>
            </trkpt>
            <trkpt lon="101.042906" lat="13.017574">
                <ele>126.070000</ele>
                <time>2017-04-30T03:27:40Z</time>
            </trkpt>
            <trkpt lon="101.042821" lat="13.017925">
                <ele>125.110000</ele>
                <time>2017-04-30T03:27:51Z</time>
            </trkpt>
            <trkpt lon="101.042547" lat="13.018217">
                <ele>123.670000</ele>
                <time>2017-04-30T03:28:03Z</time>
            </trkpt>
            <trkpt lon="101.042272" lat="13.018459">
                <ele>122.710000</ele>
                <time>2017-04-30T03:28:14Z</time>
            </trkpt>
            <trkpt lon="101.041894" lat="13.018777">
                <ele>121.260000</ele>
                <time>2017-04-30T03:28:28Z</time>
            </trkpt>
            <trkpt lon="101.041594" lat="13.018912">
                <ele>120.300000</ele>
                <time>2017-04-30T03:28:41Z</time>
            </trkpt>
            <trkpt lon="101.041566" lat="13.018931">
                <ele>120.300000</ele>
                <time>2017-04-30T03:28:49Z</time>
            </trkpt>
            <trkpt lon="101.041415" lat="13.019024">
                <ele>119.820000</ele>
                <time>2017-04-30T03:29:04Z</time>
            </trkpt>
            <trkpt lon="101.041272" lat="13.019106">
                <ele>119.340000</ele>
                <time>2017-04-30T03:29:18Z</time>
            </trkpt>
            <trkpt lon="101.041150" lat="13.019240">
                <ele>119.820000</ele>
                <time>2017-04-30T03:29:34Z</time>
            </trkpt>
            <trkpt lon="101.041048" lat="13.019418">
                <ele>118.860000</ele>
                <time>2017-04-30T03:29:52Z</time>
            </trkpt>
            <trkpt lon="101.041014" lat="13.019454">
                <ele>119.340000</ele>
                <time>2017-04-30T03:29:56Z</time>
            </trkpt>
            <trkpt lon="101.040926" lat="13.019582">
                <ele>118.860000</ele>
                <time>2017-04-30T03:30:08Z</time>
            </trkpt>
            <trkpt lon="101.040722" lat="13.019862">
                <ele>119.820000</ele>
                <time>2017-04-30T03:30:23Z</time>
            </trkpt>
            <trkpt lon="101.040562" lat="13.020038">
                <ele>121.740000</ele>
                <time>2017-04-30T03:30:36Z</time>
            </trkpt>
            <trkpt lon="101.040495" lat="13.020182">
                <ele>122.220000</ele>
                <time>2017-04-30T03:30:49Z</time>
            </trkpt>
            <trkpt lon="101.040496" lat="13.020189">
                <ele>122.710000</ele>
                <time>2017-04-30T03:30:50Z</time>
            </trkpt>
            <trkpt lon="101.040461" lat="13.020266">
                <ele>123.670000</ele>
                <time>2017-04-30T03:30:58Z</time>
            </trkpt>
            <trkpt lon="101.040273" lat="13.020048">
                <ele>123.670000</ele>
                <time>2017-04-30T03:31:12Z</time>
            </trkpt>
            <trkpt lon="101.040085" lat="13.019840">
                <ele>125.110000</ele>
                <time>2017-04-30T03:31:25Z</time>
            </trkpt>
            <trkpt lon="101.039850" lat="13.019627">
                <ele>125.110000</ele>
                <time>2017-04-30T03:31:38Z</time>
            </trkpt>
            <trkpt lon="101.039552" lat="13.019344">
                <ele>123.190000</ele>
                <time>2017-04-30T03:31:50Z</time>
            </trkpt>
            <trkpt lon="101.039281" lat="13.019077">
                <ele>120.780000</ele>
                <time>2017-04-30T03:32:02Z</time>
            </trkpt>
            <trkpt lon="101.039018" lat="13.018851">
                <ele>119.340000</ele>
                <time>2017-04-30T03:32:14Z</time>
            </trkpt>
            <trkpt lon="101.038723" lat="13.018663">
                <ele>117.420000</ele>
                <time>2017-04-30T03:32:26Z</time>
            </trkpt>
            <trkpt lon="101.038502" lat="13.018522">
                <ele>115.500000</ele>
                <time>2017-04-30T03:32:37Z</time>
            </trkpt>
            <trkpt lon="101.038441" lat="13.018488">
                <ele>115.010000</ele>
                <time>2017-04-30T03:32:40Z</time>
            </trkpt>
            <trkpt lon="101.038352" lat="13.018479">
                <ele>114.050000</ele>
                <time>2017-04-30T03:32:43Z</time>
            </trkpt>
            <trkpt lon="101.038187" lat="13.018389">
                <ele>112.610000</ele>
                <time>2017-04-30T03:32:50Z</time>
            </trkpt>
            <trkpt lon="101.038081" lat="13.017990">
                <ele>112.130000</ele>
                <time>2017-04-30T03:33:02Z</time>
            </trkpt>
            <trkpt lon="101.038102" lat="13.017747">
                <ele>111.170000</ele>
                <time>2017-04-30T03:33:09Z</time>
            </trkpt>
            <trkpt lon="101.037952" lat="13.017534">
                <ele>111.170000</ele>
                <time>2017-04-30T03:33:18Z</time>
            </trkpt>
            <trkpt lon="101.037820" lat="13.017556">
                <ele>110.690000</ele>
                <time>2017-04-30T03:33:22Z</time>
            </trkpt>
            <trkpt lon="101.037420" lat="13.017639">
                <ele>111.170000</ele>
                <time>2017-04-30T03:33:34Z</time>
            </trkpt>
            <trkpt lon="101.037138" lat="13.017701">
                <ele>113.090000</ele>
                <time>2017-04-30T03:33:49Z</time>
            </trkpt>
            <trkpt lon="101.036974" lat="13.017708">
                <ele>115.010000</ele>
                <time>2017-04-30T03:34:03Z</time>
            </trkpt>
            <trkpt lon="101.036942" lat="13.017657">
                <ele>115.980000</ele>
                <time>2017-04-30T03:34:16Z</time>
            </trkpt>
            <trkpt lon="101.036846" lat="13.017650">
                <ele>116.940000</ele>
                <time>2017-04-30T03:34:30Z</time>
            </trkpt>
            <trkpt lon="101.036746" lat="13.017688">
                <ele>118.380000</ele>
                <time>2017-04-30T03:34:41Z</time>
            </trkpt>
            <trkpt lon="101.036557" lat="13.017747">
                <ele>120.300000</ele>
                <time>2017-04-30T03:35:01Z</time>
            </trkpt>
            <trkpt lon="101.036373" lat="13.017735">
                <ele>121.260000</ele>
                <time>2017-04-30T03:35:17Z</time>
            </trkpt>
            <trkpt lon="101.036174" lat="13.017687">
                <ele>123.670000</ele>
                <time>2017-04-30T03:35:35Z</time>
            </trkpt>
            <trkpt lon="101.036016" lat="13.017575">
                <ele>126.550000</ele>
                <time>2017-04-30T03:35:54Z</time>
            </trkpt>
            <trkpt lon="101.035885" lat="13.017486">
                <ele>128.470000</ele>
                <time>2017-04-30T03:36:10Z</time>
            </trkpt>
            <trkpt lon="101.035731" lat="13.017406">
                <ele>129.430000</ele>
                <time>2017-04-30T03:36:27Z</time>
            </trkpt>
            <trkpt lon="101.035633" lat="13.017296">
                <ele>130.400000</ele>
                <time>2017-04-30T03:36:42Z</time>
            </trkpt>
            <trkpt lon="101.035543" lat="13.017194">
                <ele>130.880000</ele>
                <time>2017-04-30T03:36:55Z</time>
            </trkpt>
            <trkpt lon="101.035455" lat="13.017165">
                <ele>128.950000</ele>
                <time>2017-04-30T03:37:01Z</time>
            </trkpt>
            <trkpt lon="101.035432" lat="13.017164">
                <ele>128.470000</ele>
                <time>2017-04-30T03:37:03Z</time>
            </trkpt>
            <trkpt lon="101.035261" lat="13.017385">
                <ele>125.590000</ele>
                <time>2017-04-30T03:37:15Z</time>
            </trkpt>
            <trkpt lon="101.035186" lat="13.017596">
                <ele>127.030000</ele>
                <time>2017-04-30T03:37:26Z</time>
            </trkpt>
            <trkpt lon="101.035287" lat="13.017859">
                <ele>127.030000</ele>
                <time>2017-04-30T03:37:40Z</time>
            </trkpt>
            <trkpt lon="101.035464" lat="13.018207">
                <ele>126.550000</ele>
                <time>2017-04-30T03:37:54Z</time>
            </trkpt>
            <trkpt lon="101.035741" lat="13.018433">
                <ele>123.190000</ele>
                <time>2017-04-30T03:38:06Z</time>
            </trkpt>
            <trkpt lon="101.036039" lat="13.018681">
                <ele>120.300000</ele>
                <time>2017-04-30T03:38:19Z</time>
            </trkpt>
            <trkpt lon="101.036270" lat="13.018963">
                <ele>117.900000</ele>
                <time>2017-04-30T03:38:31Z</time>
            </trkpt>
            <trkpt lon="101.036272" lat="13.019267">
                <ele>117.420000</ele>
                <time>2017-04-30T03:38:42Z</time>
            </trkpt>
            <trkpt lon="101.035971" lat="13.019325">
                <ele>118.860000</ele>
                <time>2017-04-30T03:38:56Z</time>
            </trkpt>
            <trkpt lon="101.035736" lat="13.019294">
                <ele>120.300000</ele>
                <time>2017-04-30T03:39:10Z</time>
            </trkpt>
            <trkpt lon="101.035488" lat="13.019260">
                <ele>121.740000</ele>
                <time>2017-04-30T03:39:25Z</time>
            </trkpt>
            <trkpt lon="101.035234" lat="13.019192">
                <ele>122.710000</ele>
                <time>2017-04-30T03:39:39Z</time>
            </trkpt>
            <trkpt lon="101.034929" lat="13.019163">
                <ele>123.670000</ele>
                <time>2017-04-30T03:39:55Z</time>
            </trkpt>
            <trkpt lon="101.034661" lat="13.019055">
                <ele>125.110000</ele>
                <time>2017-04-30T03:40:11Z</time>
            </trkpt>
            <trkpt lon="101.034486" lat="13.018961">
                <ele>126.550000</ele>
                <time>2017-04-30T03:40:24Z</time>
            </trkpt>
            <trkpt lon="101.034284" lat="13.018888">
                <ele>127.990000</ele>
                <time>2017-04-30T03:40:39Z</time>
            </trkpt>
            <trkpt lon="101.033977" lat="13.018863">
                <ele>129.430000</ele>
                <time>2017-04-30T03:40:58Z</time>
            </trkpt>
            <trkpt lon="101.033713" lat="13.018827">
                <ele>131.360000</ele>
                <time>2017-04-30T03:41:13Z</time>
            </trkpt>
            <trkpt lon="101.033404" lat="13.018762">
                <ele>132.800000</ele>
                <time>2017-04-30T03:41:30Z</time>
            </trkpt>
            <trkpt lon="101.033221" lat="13.018693">
                <ele>134.240000</ele>
                <time>2017-04-30T03:41:43Z</time>
            </trkpt>
            <trkpt lon="101.033206" lat="13.018690">
                <ele>134.240000</ele>
                <time>2017-04-30T03:41:44Z</time>
            </trkpt>
            <trkpt lon="101.033017" lat="13.018670">
                <ele>135.680000</ele>
                <time>2017-04-30T03:41:57Z</time>
            </trkpt>
            <trkpt lon="101.032877" lat="13.018684">
                <ele>137.130000</ele>
                <time>2017-04-30T03:42:11Z</time>
            </trkpt>
            <trkpt lon="101.032776" lat="13.018702">
                <ele>138.570000</ele>
                <time>2017-04-30T03:42:26Z</time>
            </trkpt>
            <trkpt lon="101.032638" lat="13.018690">
                <ele>140.010000</ele>
                <time>2017-04-30T03:42:43Z</time>
            </trkpt>
            <trkpt lon="101.032514" lat="13.018689">
                <ele>140.970000</ele>
                <time>2017-04-30T03:42:55Z</time>
            </trkpt>
            <trkpt lon="101.032263" lat="13.018676">
                <ele>141.930000</ele>
                <time>2017-04-30T03:43:10Z</time>
            </trkpt>
            <trkpt lon="101.032026" lat="13.018675">
                <ele>142.410000</ele>
                <time>2017-04-30T03:43:22Z</time>
            </trkpt>
            <trkpt lon="101.031719" lat="13.018651">
                <ele>142.890000</ele>
                <time>2017-04-30T03:43:35Z</time>
            </trkpt>
            <trkpt lon="101.031533" lat="13.018650">
                <ele>143.850000</ele>
                <time>2017-04-30T03:43:46Z</time>
            </trkpt>
            <trkpt lon="101.031464" lat="13.018645">
                <ele>144.820000</ele>
                <time>2017-04-30T03:43:51Z</time>
            </trkpt>
            <trkpt lon="101.031300" lat="13.018619">
                <ele>146.260000</ele>
                <time>2017-04-30T03:44:05Z</time>
            </trkpt>
            <trkpt lon="101.031066" lat="13.018590">
                <ele>145.780000</ele>
                <time>2017-04-30T03:44:17Z</time>
            </trkpt>
            <trkpt lon="101.030996" lat="13.018586">
                <ele>146.260000</ele>
                <time>2017-04-30T03:44:21Z</time>
            </trkpt>
            <trkpt lon="101.030926" lat="13.018578">
                <ele>146.740000</ele>
                <time>2017-04-30T03:44:36Z</time>
            </trkpt>
            <trkpt lon="101.030795" lat="13.018568">
                <ele>148.660000</ele>
                <time>2017-04-30T03:44:52Z</time>
            </trkpt>
            <trkpt lon="101.030629" lat="13.018579">
                <ele>150.580000</ele>
                <time>2017-04-30T03:45:09Z</time>
            </trkpt>
            <trkpt lon="101.030453" lat="13.018571">
                <ele>152.510000</ele>
                <time>2017-04-30T03:45:27Z</time>
            </trkpt>
            <trkpt lon="101.030268" lat="13.018560">
                <ele>153.950000</ele>
                <time>2017-04-30T03:45:44Z</time>
            </trkpt>
            <trkpt lon="101.030071" lat="13.018567">
                <ele>155.870000</ele>
                <time>2017-04-30T03:46:00Z</time>
            </trkpt>
            <trkpt lon="101.029892" lat="13.018569">
                <ele>157.310000</ele>
                <time>2017-04-30T03:46:15Z</time>
            </trkpt>
            <trkpt lon="101.029734" lat="13.018592">
                <ele>159.240000</ele>
                <time>2017-04-30T03:46:31Z</time>
            </trkpt>
            <trkpt lon="101.029574" lat="13.018620">
                <ele>161.160000</ele>
                <time>2017-04-30T03:46:48Z</time>
            </trkpt>
            <trkpt lon="101.029452" lat="13.018685">
                <ele>163.080000</ele>
                <time>2017-04-30T03:47:02Z</time>
            </trkpt>
            <trkpt lon="101.029417" lat="13.018819">
                <ele>164.520000</ele>
                <time>2017-04-30T03:47:17Z</time>
            </trkpt>
            <trkpt lon="101.029406" lat="13.018981">
                <ele>166.450000</ele>
                <time>2017-04-30T03:47:33Z</time>
            </trkpt>
            <trkpt lon="101.029344" lat="13.019027">
                <ele>166.450000</ele>
                <time>2017-04-30T03:47:39Z</time>
            </trkpt>
            <trkpt lon="101.029135" lat="13.019001">
                <ele>167.410000</ele>
                <time>2017-04-30T03:47:57Z</time>
            </trkpt>
            <trkpt lon="101.028947" lat="13.018964">
                <ele>168.370000</ele>
                <time>2017-04-30T03:48:14Z</time>
            </trkpt>
            <trkpt lon="101.028829" lat="13.018929">
                <ele>168.370000</ele>
                <time>2017-04-30T03:48:32Z</time>
            </trkpt>
            <trkpt lon="101.028808" lat="13.018921">
                <ele>168.850000</ele>
                <time>2017-04-30T03:49:05Z</time>
            </trkpt>
            <trkpt lon="101.028790" lat="13.018926">
                <ele>168.370000</ele>
                <time>2017-04-30T03:49:14Z</time>
            </trkpt>
            <trkpt lon="101.028756" lat="13.018963">
                <ele>168.370000</ele>
                <time>2017-04-30T03:49:30Z</time>
            </trkpt>
            <trkpt lon="101.028745" lat="13.018987">
                <ele>168.370000</ele>
                <time>2017-04-30T03:49:36Z</time>
            </trkpt>
            <trkpt lon="101.028717" lat="13.019138">
                <ele>167.410000</ele>
                <time>2017-04-30T03:49:46Z</time>
            </trkpt>
            <trkpt lon="101.028717" lat="13.019479">
                <ele>165.480000</ele>
                <time>2017-04-30T03:50:01Z</time>
            </trkpt>
            <trkpt lon="101.028642" lat="13.019802">
                <ele>163.560000</ele>
                <time>2017-04-30T03:50:13Z</time>
            </trkpt>
            <trkpt lon="101.028604" lat="13.019825">
                <ele>163.560000</ele>
                <time>2017-04-30T03:50:15Z</time>
            </trkpt>
            <trkpt lon="101.028576" lat="13.019833">
                <ele>164.040000</ele>
                <time>2017-04-30T03:50:16Z</time>
            </trkpt>
            <trkpt lon="101.028550" lat="13.019836">
                <ele>164.040000</ele>
                <time>2017-04-30T03:50:17Z</time>
            </trkpt>
            <trkpt lon="101.028523" lat="13.019832">
                <ele>164.040000</ele>
                <time>2017-04-30T03:50:18Z</time>
            </trkpt>
            <trkpt lon="101.028498" lat="13.019826">
                <ele>164.040000</ele>
                <time>2017-04-30T03:50:19Z</time>
            </trkpt>
            <trkpt lon="101.028472" lat="13.019820">
                <ele>164.040000</ele>
                <time>2017-04-30T03:50:20Z</time>
            </trkpt>
            <trkpt lon="101.028341" lat="13.019787">
                <ele>164.040000</ele>
                <time>2017-04-30T03:50:25Z</time>
            </trkpt>
            <trkpt lon="101.028314" lat="13.019782">
                <ele>164.040000</ele>
                <time>2017-04-30T03:50:26Z</time>
            </trkpt>
            <trkpt lon="101.027937" lat="13.019793">
                <ele>161.160000</ele>
                <time>2017-04-30T03:50:40Z</time>
            </trkpt>
            <trkpt lon="101.027689" lat="13.019926">
                <ele>157.790000</ele>
                <time>2017-04-30T03:50:53Z</time>
            </trkpt>
            <trkpt lon="101.027647" lat="13.020002">
                <ele>156.830000</ele>
                <time>2017-04-30T03:51:05Z</time>
            </trkpt>
            <trkpt lon="101.027648" lat="13.020176">
                <ele>154.430000</ele>
                <time>2017-04-30T03:51:19Z</time>
            </trkpt>
            <trkpt lon="101.027657" lat="13.020248">
                <ele>153.470000</ele>
                <time>2017-04-30T03:51:27Z</time>
            </trkpt>
            <trkpt lon="101.027657" lat="13.020262">
                <ele>152.990000</ele>
                <time>2017-04-30T03:51:28Z</time>
            </trkpt>
            <trkpt lon="101.027655" lat="13.020278">
                <ele>152.990000</ele>
                <time>2017-04-30T03:51:29Z</time>
            </trkpt>
            <trkpt lon="101.027654" lat="13.020293">
                <ele>152.510000</ele>
                <time>2017-04-30T03:51:30Z</time>
            </trkpt>
            <trkpt lon="101.027656" lat="13.020451">
                <ele>150.100000</ele>
                <time>2017-04-30T03:51:42Z</time>
            </trkpt>
            <trkpt lon="101.027668" lat="13.020575">
                <ele>148.180000</ele>
                <time>2017-04-30T03:51:55Z</time>
            </trkpt>
            <trkpt lon="101.027685" lat="13.020624">
                <ele>147.220000</ele>
                <time>2017-04-30T03:52:01Z</time>
            </trkpt>
            <trkpt lon="101.027690" lat="13.020718">
                <ele>145.780000</ele>
                <time>2017-04-30T03:52:14Z</time>
            </trkpt>
            <trkpt lon="101.027712" lat="13.020815">
                <ele>144.340000</ele>
                <time>2017-04-30T03:52:26Z</time>
            </trkpt>
            <trkpt lon="101.027788" lat="13.020933">
                <ele>142.410000</ele>
                <time>2017-04-30T03:52:41Z</time>
            </trkpt>
            <trkpt lon="101.027865" lat="13.021089">
                <ele>139.050000</ele>
                <time>2017-04-30T03:52:59Z</time>
            </trkpt>
            <trkpt lon="101.027894" lat="13.021201">
                <ele>137.610000</ele>
                <time>2017-04-30T03:53:14Z</time>
            </trkpt>
            <trkpt lon="101.027912" lat="13.021276">
                <ele>136.640000</ele>
                <time>2017-04-30T03:53:28Z</time>
            </trkpt>
            <trkpt lon="101.027920" lat="13.021374">
                <ele>134.720000</ele>
                <time>2017-04-30T03:53:41Z</time>
            </trkpt>
            <trkpt lon="101.027907" lat="13.021428">
                <ele>134.240000</ele>
                <time>2017-04-30T03:53:46Z</time>
            </trkpt>
            <trkpt lon="101.027851" lat="13.021576">
                <ele>131.360000</ele>
                <time>2017-04-30T03:54:01Z</time>
            </trkpt>
            <trkpt lon="101.027818" lat="13.021733">
                <ele>129.920000</ele>
                <time>2017-04-30T03:54:16Z</time>
            </trkpt>
            <trkpt lon="101.027782" lat="13.021811">
                <ele>128.950000</ele>
                <time>2017-04-30T03:54:29Z</time>
            </trkpt>
            <trkpt lon="101.027708" lat="13.021918">
                <ele>127.510000</ele>
                <time>2017-04-30T03:54:41Z</time>
            </trkpt>
            <trkpt lon="101.027606" lat="13.022112">
                <ele>126.070000</ele>
                <time>2017-04-30T03:54:53Z</time>
            </trkpt>
            <trkpt lon="101.027496" lat="13.022282">
                <ele>125.590000</ele>
                <time>2017-04-30T03:55:03Z</time>
            </trkpt>
            <trkpt lon="101.027487" lat="13.022301">
                <ele>125.110000</ele>
                <time>2017-04-30T03:55:04Z</time>
            </trkpt>
            <trkpt lon="101.027376" lat="13.022637">
                <ele>124.630000</ele>
                <time>2017-04-30T03:55:16Z</time>
            </trkpt>
            <trkpt lon="101.027275" lat="13.022922">
                <ele>122.220000</ele>
                <time>2017-04-30T03:55:27Z</time>
            </trkpt>
            <trkpt lon="101.027223" lat="13.022938">
                <ele>121.740000</ele>
                <time>2017-04-30T03:55:30Z</time>
            </trkpt>
            <trkpt lon="101.027204" lat="13.022929">
                <ele>121.260000</ele>
                <time>2017-04-30T03:55:31Z</time>
            </trkpt>
            <trkpt lon="101.027184" lat="13.022920">
                <ele>121.260000</ele>
                <time>2017-04-30T03:55:32Z</time>
            </trkpt>
            <trkpt lon="101.027164" lat="13.022908">
                <ele>121.260000</ele>
                <time>2017-04-30T03:55:33Z</time>
            </trkpt>
            <trkpt lon="101.026888" lat="13.022806">
                <ele>118.860000</ele>
                <time>2017-04-30T03:55:45Z</time>
            </trkpt>
            <trkpt lon="101.026795" lat="13.022818">
                <ele>118.380000</ele>
                <time>2017-04-30T03:55:49Z</time>
            </trkpt>
            <trkpt lon="101.026619" lat="13.022939">
                <ele>116.460000</ele>
                <time>2017-04-30T03:55:58Z</time>
            </trkpt>
            <trkpt lon="101.026416" lat="13.023177">
                <ele>114.050000</ele>
                <time>2017-04-30T03:56:10Z</time>
            </trkpt>
            <trkpt lon="101.026165" lat="13.023263">
                <ele>112.130000</ele>
                <time>2017-04-30T03:56:21Z</time>
            </trkpt>
            <trkpt lon="101.025815" lat="13.023479">
                <ele>112.130000</ele>
                <time>2017-04-30T03:56:34Z</time>
            </trkpt>
            <trkpt lon="101.025746" lat="13.023743">
                <ele>112.130000</ele>
                <time>2017-04-30T03:56:44Z</time>
            </trkpt>
            <trkpt lon="101.025661" lat="13.024145">
                <ele>110.690000</ele>
                <time>2017-04-30T03:56:56Z</time>
            </trkpt>
            <trkpt lon="101.025600" lat="13.024539">
                <ele>108.770000</ele>
                <time>2017-04-30T03:57:08Z</time>
            </trkpt>
            <trkpt lon="101.025539" lat="13.024646">
                <ele>107.810000</ele>
                <time>2017-04-30T03:57:11Z</time>
            </trkpt>
            <trkpt lon="101.025274" lat="13.025032">
                <ele>106.360000</ele>
                <time>2017-04-30T03:57:22Z</time>
            </trkpt>
            <trkpt lon="101.025237" lat="13.025122">
                <ele>106.360000</ele>
                <time>2017-04-30T03:57:24Z</time>
            </trkpt>
            <trkpt lon="101.024991" lat="13.025536">
                <ele>104.440000</ele>
                <time>2017-04-30T03:57:37Z</time>
            </trkpt>
            <trkpt lon="101.024969" lat="13.025557">
                <ele>104.440000</ele>
                <time>2017-04-30T03:57:39Z</time>
            </trkpt>
            <trkpt lon="101.024950" lat="13.025583">
                <ele>104.440000</ele>
                <time>2017-04-30T03:57:44Z</time>
            </trkpt>
            <trkpt lon="101.024705" lat="13.025361">
                <ele>104.440000</ele>
                <time>2017-04-30T03:57:57Z</time>
            </trkpt>
            <trkpt lon="101.024438" lat="13.025022">
                <ele>105.880000</ele>
                <time>2017-04-30T03:58:12Z</time>
            </trkpt>
            <trkpt lon="101.024244" lat="13.024676">
                <ele>107.320000</ele>
                <time>2017-04-30T03:58:29Z</time>
            </trkpt>
            <trkpt lon="101.024217" lat="13.024666">
                <ele>106.840000</ele>
                <time>2017-04-30T03:58:30Z</time>
            </trkpt>
            <trkpt lon="101.024185" lat="13.024668">
                <ele>106.840000</ele>
                <time>2017-04-30T03:58:31Z</time>
            </trkpt>
            <trkpt lon="101.024153" lat="13.024679">
                <ele>106.840000</ele>
                <time>2017-04-30T03:58:32Z</time>
            </trkpt>
            <trkpt lon="101.024123" lat="13.024701">
                <ele>106.840000</ele>
                <time>2017-04-30T03:58:33Z</time>
            </trkpt>
            <trkpt lon="101.024092" lat="13.024732">
                <ele>105.880000</ele>
                <time>2017-04-30T03:58:34Z</time>
            </trkpt>
            <trkpt lon="101.024058" lat="13.024764">
                <ele>105.400000</ele>
                <time>2017-04-30T03:58:35Z</time>
            </trkpt>
            <trkpt lon="101.023752" lat="13.025041">
                <ele>103.960000</ele>
                <time>2017-04-30T03:58:46Z</time>
            </trkpt>
            <trkpt lon="101.023562" lat="13.025196">
                <ele>103.480000</ele>
                <time>2017-04-30T03:58:53Z</time>
            </trkpt>
            <trkpt lon="101.023518" lat="13.025208">
                <ele>103.480000</ele>
                <time>2017-04-30T03:58:54Z</time>
            </trkpt>
            <trkpt lon="101.023470" lat="13.025211">
                <ele>103.000000</ele>
                <time>2017-04-30T03:58:55Z</time>
            </trkpt>
            <trkpt lon="101.023174" lat="13.025198">
                <ele>100.600000</ele>
                <time>2017-04-30T03:59:01Z</time>
            </trkpt>
            <trkpt lon="101.023027" lat="13.025222">
                <ele>99.150000</ele>
                <time>2017-04-30T03:59:05Z</time>
            </trkpt>
            <trkpt lon="101.023008" lat="13.025238">
                <ele>99.150000</ele>
                <time>2017-04-30T03:59:06Z</time>
            </trkpt>
            <trkpt lon="101.022840" lat="13.025534">
                <ele>100.110000</ele>
                <time>2017-04-30T03:59:17Z</time>
            </trkpt>
            <trkpt lon="101.022818" lat="13.025732">
                <ele>102.520000</ele>
                <time>2017-04-30T03:59:30Z</time>
            </trkpt>
            <trkpt lon="101.022778" lat="13.025943">
                <ele>101.560000</ele>
                <time>2017-04-30T03:59:42Z</time>
            </trkpt>
            <trkpt lon="101.022804" lat="13.026131">
                <ele>100.600000</ele>
                <time>2017-04-30T03:59:52Z</time>
            </trkpt>
            <trkpt lon="101.022821" lat="13.026492">
                <ele>99.630000</ele>
                <time>2017-04-30T04:00:05Z</time>
            </trkpt>
            <trkpt lon="101.022794" lat="13.026776">
                <ele>97.710000</ele>
                <time>2017-04-30T04:00:14Z</time>
            </trkpt>
            <trkpt lon="101.022624" lat="13.026863">
                <ele>95.790000</ele>
                <time>2017-04-30T04:00:21Z</time>
            </trkpt>
            <trkpt lon="101.022506" lat="13.026932">
                <ele>95.310000</ele>
                <time>2017-04-30T04:00:25Z</time>
            </trkpt>
            <trkpt lon="101.022577" lat="13.027250">
                <ele>94.830000</ele>
                <time>2017-04-30T04:00:37Z</time>
            </trkpt>
            <trkpt lon="101.022652" lat="13.027539">
                <ele>95.790000</ele>
                <time>2017-04-30T04:00:50Z</time>
            </trkpt>
            <trkpt lon="101.022784" lat="13.027701">
                <ele>99.150000</ele>
                <time>2017-04-30T04:01:05Z</time>
            </trkpt>
            <trkpt lon="101.022792" lat="13.027728">
                <ele>99.150000</ele>
                <time>2017-04-30T04:01:07Z</time>
            </trkpt>
            <trkpt lon="101.022998" lat="13.027915">
                <ele>100.110000</ele>
                <time>2017-04-30T04:01:22Z</time>
            </trkpt>
            <trkpt lon="101.023262" lat="13.028088">
                <ele>100.600000</ele>
                <time>2017-04-30T04:01:36Z</time>
            </trkpt>
            <trkpt lon="101.023431" lat="13.028201">
                <ele>100.600000</ele>
                <time>2017-04-30T04:01:42Z</time>
            </trkpt>
            <trkpt lon="101.023442" lat="13.028318">
                <ele>100.110000</ele>
                <time>2017-04-30T04:01:48Z</time>
            </trkpt>
            <trkpt lon="101.023442" lat="13.028819">
                <ele>96.750000</ele>
                <time>2017-04-30T04:02:04Z</time>
            </trkpt>
            <trkpt lon="101.023524" lat="13.029139">
                <ele>95.790000</ele>
                <time>2017-04-30T04:02:15Z</time>
            </trkpt>
            <trkpt lon="101.023681" lat="13.029308">
                <ele>97.230000</ele>
                <time>2017-04-30T04:02:27Z</time>
            </trkpt>
            <trkpt lon="101.023849" lat="13.029687">
                <ele>96.750000</ele>
                <time>2017-04-30T04:02:42Z</time>
            </trkpt>
            <trkpt lon="101.024006" lat="13.030097">
                <ele>95.790000</ele>
                <time>2017-04-30T04:02:56Z</time>
            </trkpt>
            <trkpt lon="101.024042" lat="13.030222">
                <ele>94.350000</ele>
                <time>2017-04-30T04:03:07Z</time>
            </trkpt>
            <trkpt lon="101.024063" lat="13.030222">
                <ele>94.830000</ele>
                <time>2017-04-30T04:03:25Z</time>
            </trkpt>
            <trkpt lon="101.024013" lat="13.030231">
                <ele>94.350000</ele>
                <time>2017-04-30T04:03:42Z</time>
            </trkpt>
            <trkpt lon="101.023999" lat="13.030241">
                <ele>93.870000</ele>
                <time>2017-04-30T04:03:47Z</time>
            </trkpt>
            <trkpt lon="101.023940" lat="13.030297">
                <ele>92.900000</ele>
                <time>2017-04-30T04:03:51Z</time>
            </trkpt>
            <trkpt lon="101.023682" lat="13.030474">
                <ele>89.540000</ele>
                <time>2017-04-30T04:04:02Z</time>
            </trkpt>
            <trkpt lon="101.023524" lat="13.030768">
                <ele>87.140000</ele>
                <time>2017-04-30T04:04:11Z</time>
            </trkpt>
            <trkpt lon="101.023427" lat="13.031023">
                <ele>86.180000</ele>
                <time>2017-04-30T04:04:22Z</time>
            </trkpt>
            <trkpt lon="101.023186" lat="13.031041">
                <ele>85.690000</ele>
                <time>2017-04-30T04:04:34Z</time>
            </trkpt>
            <trkpt lon="101.022751" lat="13.031046">
                <ele>83.290000</ele>
                <time>2017-04-30T04:04:45Z</time>
            </trkpt>
            <trkpt lon="101.022502" lat="13.031094">
                <ele>80.410000</ele>
                <time>2017-04-30T04:04:53Z</time>
            </trkpt>
            <trkpt lon="101.022271" lat="13.031162">
                <ele>77.040000</ele>
                <time>2017-04-30T04:05:01Z</time>
            </trkpt>
            <trkpt lon="101.022237" lat="13.031184">
                <ele>77.040000</ele>
                <time>2017-04-30T04:05:02Z</time>
            </trkpt>
            <trkpt lon="101.022205" lat="13.031213">
                <ele>76.560000</ele>
                <time>2017-04-30T04:05:03Z</time>
            </trkpt>
            <trkpt lon="101.022181" lat="13.031248">
                <ele>76.080000</ele>
                <time>2017-04-30T04:05:04Z</time>
            </trkpt>
            <trkpt lon="101.022163" lat="13.031288">
                <ele>75.600000</ele>
                <time>2017-04-30T04:05:05Z</time>
            </trkpt>
            <trkpt lon="101.022148" lat="13.031327">
                <ele>75.600000</ele>
                <time>2017-04-30T04:05:06Z</time>
            </trkpt>
            <trkpt lon="101.022025" lat="13.031520">
                <ele>75.600000</ele>
                <time>2017-04-30T04:05:12Z</time>
            </trkpt>
            <trkpt lon="101.022002" lat="13.031557">
                <ele>75.600000</ele>
                <time>2017-04-30T04:05:13Z</time>
            </trkpt>
            <trkpt lon="101.021975" lat="13.031593">
                <ele>75.120000</ele>
                <time>2017-04-30T04:05:14Z</time>
            </trkpt>
            <trkpt lon="101.021774" lat="13.031822">
                <ele>74.160000</ele>
                <time>2017-04-30T04:05:21Z</time>
            </trkpt>
            <trkpt lon="101.021690" lat="13.031847">
                <ele>73.680000</ele>
                <time>2017-04-30T04:05:23Z</time>
            </trkpt>
            <trkpt lon="101.021647" lat="13.031866">
                <ele>73.680000</ele>
                <time>2017-04-30T04:05:24Z</time>
            </trkpt>
            <trkpt lon="101.021567" lat="13.031910">
                <ele>73.200000</ele>
                <time>2017-04-30T04:05:26Z</time>
            </trkpt>
            <trkpt lon="101.021529" lat="13.031930">
                <ele>73.200000</ele>
                <time>2017-04-30T04:05:27Z</time>
            </trkpt>
            <trkpt lon="101.021495" lat="13.031956">
                <ele>73.200000</ele>
                <time>2017-04-30T04:05:28Z</time>
            </trkpt>
            <trkpt lon="101.021468" lat="13.031988">
                <ele>72.720000</ele>
                <time>2017-04-30T04:05:29Z</time>
            </trkpt>
            <trkpt lon="101.021443" lat="13.032024">
                <ele>72.720000</ele>
                <time>2017-04-30T04:05:30Z</time>
            </trkpt>
            <trkpt lon="101.021426" lat="13.032065">
                <ele>72.240000</ele>
                <time>2017-04-30T04:05:31Z</time>
            </trkpt>
            <trkpt lon="101.021419" lat="13.032107">
                <ele>72.240000</ele>
                <time>2017-04-30T04:05:32Z</time>
            </trkpt>
            <trkpt lon="101.021427" lat="13.032186">
                <ele>72.240000</ele>
                <time>2017-04-30T04:05:34Z</time>
            </trkpt>
            <trkpt lon="101.021532" lat="13.032497">
                <ele>72.720000</ele>
                <time>2017-04-30T04:05:42Z</time>
            </trkpt>
            <trkpt lon="101.021568" lat="13.032986">
                <ele>72.720000</ele>
                <time>2017-04-30T04:05:55Z</time>
            </trkpt>
            <trkpt lon="101.021447" lat="13.033216">
                <ele>72.240000</ele>
                <time>2017-04-30T04:06:06Z</time>
            </trkpt>
            <trkpt lon="101.021356" lat="13.033515">
                <ele>71.760000</ele>
                <time>2017-04-30T04:06:19Z</time>
            </trkpt>
            <trkpt lon="101.021276" lat="13.033993">
                <ele>71.270000</ele>
                <time>2017-04-30T04:06:32Z</time>
            </trkpt>
            <trkpt lon="101.021281" lat="13.034052">
                <ele>71.760000</ele>
                <time>2017-04-30T04:06:34Z</time>
            </trkpt>
            <trkpt lon="101.021175" lat="13.034304">
                <ele>71.760000</ele>
                <time>2017-04-30T04:06:44Z</time>
            </trkpt>
            <trkpt lon="101.021052" lat="13.034400">
                <ele>71.760000</ele>
                <time>2017-04-30T04:06:49Z</time>
            </trkpt>
            <trkpt lon="101.020895" lat="13.034585">
                <ele>71.270000</ele>
                <time>2017-04-30T04:06:55Z</time>
            </trkpt>
            <trkpt lon="101.020896" lat="13.034675">
                <ele>71.270000</ele>
                <time>2017-04-30T04:06:57Z</time>
            </trkpt>
            <trkpt lon="101.021022" lat="13.035170">
                <ele>70.790000</ele>
                <time>2017-04-30T04:07:10Z</time>
            </trkpt>
            <trkpt lon="101.021198" lat="13.035430">
                <ele>71.760000</ele>
                <time>2017-04-30T04:07:21Z</time>
            </trkpt>
            <trkpt lon="101.021253" lat="13.035453">
                <ele>72.240000</ele>
                <time>2017-04-30T04:07:34Z</time>
            </trkpt>
            <trkpt lon="101.021228" lat="13.035457">
                <ele>71.760000</ele>
                <time>2017-04-30T04:07:52Z</time>
            </trkpt>
            <trkpt lon="101.021217" lat="13.035447">
                <ele>71.760000</ele>
                <time>2017-04-30T04:08:30Z</time>
            </trkpt>
            <trkpt lon="101.021200" lat="13.035439">
                <ele>72.240000</ele>
                <time>2017-04-30T04:09:10Z</time>
            </trkpt>
            <trkpt lon="101.021234" lat="13.035450">
                <ele>72.240000</ele>
                <time>2017-04-30T04:09:53Z</time>
            </trkpt>
            <trkpt lon="101.021219" lat="13.035489">
                <ele>72.720000</ele>
                <time>2017-04-30T04:10:35Z</time>
            </trkpt>
            <trkpt lon="101.021248" lat="13.035472">
                <ele>73.200000</ele>
                <time>2017-04-30T04:11:30Z</time>
            </trkpt>
            <trkpt lon="101.021238" lat="13.035474">
                <ele>73.200000</ele>
                <time>2017-04-30T04:12:22Z</time>
            </trkpt>
            <trkpt lon="101.021222" lat="13.035448">
                <ele>73.680000</ele>
                <time>2017-04-30T04:13:03Z</time>
            </trkpt>
            <trkpt lon="101.021238" lat="13.035468">
                <ele>73.680000</ele>
                <time>2017-04-30T04:13:44Z</time>
            </trkpt>
            <trkpt lon="101.021226" lat="13.035468">
                <ele>73.680000</ele>
                <time>2017-04-30T04:14:27Z</time>
            </trkpt>
            <trkpt lon="101.021218" lat="13.035452">
                <ele>74.160000</ele>
                <time>2017-04-30T04:15:09Z</time>
            </trkpt>
            <trkpt lon="101.021239" lat="13.035441">
                <ele>74.160000</ele>
                <time>2017-04-30T04:15:58Z</time>
            </trkpt>
            <trkpt lon="101.021233" lat="13.035470">
                <ele>74.160000</ele>
                <time>2017-04-30T04:16:34Z</time>
            </trkpt>
            <trkpt lon="101.021163" lat="13.035441">
                <ele>74.640000</ele>
                <time>2017-04-30T04:17:22Z</time>
            </trkpt>
            <trkpt lon="101.021165" lat="13.035444">
                <ele>75.600000</ele>
                <time>2017-04-30T04:17:43Z</time>
            </trkpt>
            <trkpt lon="101.021216" lat="13.035541">
                <ele>75.600000</ele>
                <time>2017-04-30T04:17:56Z</time>
            </trkpt>
            <trkpt lon="101.021291" lat="13.035596">
                <ele>75.600000</ele>
                <time>2017-04-30T04:18:09Z</time>
            </trkpt>
            <trkpt lon="101.021418" lat="13.035684">
                <ele>76.080000</ele>
                <time>2017-04-30T04:18:20Z</time>
            </trkpt>
            <trkpt lon="101.021797" lat="13.035711">
                <ele>76.560000</ele>
                <time>2017-04-30T04:18:35Z</time>
            </trkpt>
            <trkpt lon="101.022197" lat="13.035739">
                <ele>77.520000</ele>
                <time>2017-04-30T04:18:50Z</time>
            </trkpt>
            <trkpt lon="101.022625" lat="13.035880">
                <ele>78.000000</ele>
                <time>2017-04-30T04:19:04Z</time>
            </trkpt>
            <trkpt lon="101.023023" lat="13.035750">
                <ele>78.970000</ele>
                <time>2017-04-30T04:19:19Z</time>
            </trkpt>
            <trkpt lon="101.023252" lat="13.035370">
                <ele>81.370000</ele>
                <time>2017-04-30T04:19:36Z</time>
            </trkpt>
            <trkpt lon="101.023427" lat="13.035031">
                <ele>82.330000</ele>
                <time>2017-04-30T04:19:51Z</time>
            </trkpt>
            <trkpt lon="101.023404" lat="13.034757">
                <ele>82.810000</ele>
                <time>2017-04-30T04:20:02Z</time>
            </trkpt>
            <trkpt lon="101.023393" lat="13.034186">
                <ele>84.730000</ele>
                <time>2017-04-30T04:20:20Z</time>
            </trkpt>
            <trkpt lon="101.023393" lat="13.033626">
                <ele>84.730000</ele>
                <time>2017-04-30T04:20:35Z</time>
            </trkpt>
            <trkpt lon="101.023689" lat="13.033189">
                <ele>85.210000</ele>
                <time>2017-04-30T04:20:49Z</time>
            </trkpt>
            <trkpt lon="101.024191" lat="13.032936">
                <ele>87.620000</ele>
                <time>2017-04-30T04:21:06Z</time>
            </trkpt>
            <trkpt lon="101.024663" lat="13.032783">
                <ele>88.100000</ele>
                <time>2017-04-30T04:21:21Z</time>
            </trkpt>
            <trkpt lon="101.025328" lat="13.032590">
                <ele>90.500000</ele>
                <time>2017-04-30T04:21:41Z</time>
            </trkpt>
            <trkpt lon="101.025950" lat="13.032443">
                <ele>92.420000</ele>
                <time>2017-04-30T04:21:59Z</time>
            </trkpt>
            <trkpt lon="101.026546" lat="13.032468">
                <ele>93.870000</ele>
                <time>2017-04-30T04:22:16Z</time>
            </trkpt>
            <trkpt lon="101.027215" lat="13.032611">
                <ele>93.870000</ele>
                <time>2017-04-30T04:22:32Z</time>
            </trkpt>
            <trkpt lon="101.027263" lat="13.032619">
                <ele>93.870000</ele>
                <time>2017-04-30T04:22:33Z</time>
            </trkpt>
            <trkpt lon="101.027313" lat="13.032624">
                <ele>93.870000</ele>
                <time>2017-04-30T04:22:34Z</time>
            </trkpt>
            <trkpt lon="101.027416" lat="13.032627">
                <ele>93.390000</ele>
                <time>2017-04-30T04:22:36Z</time>
            </trkpt>
            <trkpt lon="101.027780" lat="13.032524">
                <ele>92.420000</ele>
                <time>2017-04-30T04:22:43Z</time>
            </trkpt>
            <trkpt lon="101.027828" lat="13.032493">
                <ele>92.420000</ele>
                <time>2017-04-30T04:22:44Z</time>
            </trkpt>
            <trkpt lon="101.027873" lat="13.032460">
                <ele>91.940000</ele>
                <time>2017-04-30T04:22:45Z</time>
            </trkpt>
            <trkpt lon="101.027916" lat="13.032424">
                <ele>91.940000</ele>
                <time>2017-04-30T04:22:46Z</time>
            </trkpt>
            <trkpt lon="101.027956" lat="13.032383">
                <ele>91.940000</ele>
                <time>2017-04-30T04:22:47Z</time>
            </trkpt>
            <trkpt lon="101.027988" lat="13.032340">
                <ele>91.940000</ele>
                <time>2017-04-30T04:22:48Z</time>
            </trkpt>
            <trkpt lon="101.028013" lat="13.032295">
                <ele>91.940000</ele>
                <time>2017-04-30T04:22:49Z</time>
            </trkpt>
            <trkpt lon="101.028033" lat="13.032249">
                <ele>91.940000</ele>
                <time>2017-04-30T04:22:50Z</time>
            </trkpt>
            <trkpt lon="101.028146" lat="13.031721">
                <ele>93.870000</ele>
                <time>2017-04-30T04:23:04Z</time>
            </trkpt>
            <trkpt lon="101.028198" lat="13.031179">
                <ele>95.310000</ele>
                <time>2017-04-30T04:23:22Z</time>
            </trkpt>
            <trkpt lon="101.028244" lat="13.030996">
                <ele>95.310000</ele>
                <time>2017-04-30T04:23:27Z</time>
            </trkpt>
            <trkpt lon="101.028459" lat="13.030323">
                <ele>91.940000</ele>
                <time>2017-04-30T04:23:42Z</time>
            </trkpt>
            <trkpt lon="101.028492" lat="13.030241">
                <ele>91.940000</ele>
                <time>2017-04-30T04:23:44Z</time>
            </trkpt>
            <trkpt lon="101.028512" lat="13.030156">
                <ele>91.940000</ele>
                <time>2017-04-30T04:23:46Z</time>
            </trkpt>
            <trkpt lon="101.028525" lat="13.029728">
                <ele>90.980000</ele>
                <time>2017-04-30T04:23:56Z</time>
            </trkpt>
            <trkpt lon="101.028408" lat="13.029086">
                <ele>88.580000</ele>
                <time>2017-04-30T04:24:10Z</time>
            </trkpt>
            <trkpt lon="101.028608" lat="13.028845">
                <ele>88.580000</ele>
                <time>2017-04-30T04:24:20Z</time>
            </trkpt>
            <trkpt lon="101.028925" lat="13.028727">
                <ele>89.540000</ele>
                <time>2017-04-30T04:24:32Z</time>
            </trkpt>
            <trkpt lon="101.029076" lat="13.028610">
                <ele>91.460000</ele>
                <time>2017-04-30T04:24:42Z</time>
            </trkpt>
            <trkpt lon="101.029277" lat="13.028384">
                <ele>93.870000</ele>
                <time>2017-04-30T04:25:00Z</time>
            </trkpt>
            <trkpt lon="101.029371" lat="13.028217">
                <ele>96.270000</ele>
                <time>2017-04-30T04:25:14Z</time>
            </trkpt>
            <trkpt lon="101.029387" lat="13.028113">
                <ele>96.750000</ele>
                <time>2017-04-30T04:25:21Z</time>
            </trkpt>
            <trkpt lon="101.029443" lat="13.028053">
                <ele>97.230000</ele>
                <time>2017-04-30T04:25:26Z</time>
            </trkpt>
            <trkpt lon="101.029740" lat="13.027956">
                <ele>98.670000</ele>
                <time>2017-04-30T04:25:43Z</time>
            </trkpt>
            <trkpt lon="101.030080" lat="13.027654">
                <ele>98.670000</ele>
                <time>2017-04-30T04:26:00Z</time>
            </trkpt>
            <trkpt lon="101.030185" lat="13.027195">
                <ele>99.150000</ele>
                <time>2017-04-30T04:26:17Z</time>
            </trkpt>
            <trkpt lon="101.030225" lat="13.027134">
                <ele>99.150000</ele>
                <time>2017-04-30T04:26:20Z</time>
            </trkpt>
            <trkpt lon="101.030436" lat="13.026942">
                <ele>97.230000</ele>
                <time>2017-04-30T04:26:31Z</time>
            </trkpt>
            <trkpt lon="101.030433" lat="13.026911">
                <ele>97.230000</ele>
                <time>2017-04-30T04:26:32Z</time>
            </trkpt>
            <trkpt lon="101.030398" lat="13.026789">
                <ele>96.750000</ele>
                <time>2017-04-30T04:26:36Z</time>
            </trkpt>
            <trkpt lon="101.030525" lat="13.026628">
                <ele>96.270000</ele>
                <time>2017-04-30T04:26:43Z</time>
            </trkpt>
            <trkpt lon="101.030812" lat="13.026553">
                <ele>99.150000</ele>
                <time>2017-04-30T04:26:58Z</time>
            </trkpt>
            <trkpt lon="101.030823" lat="13.026388">
                <ele>100.110000</ele>
                <time>2017-04-30T04:27:11Z</time>
            </trkpt>
            <trkpt lon="101.030674" lat="13.026176">
                <ele>101.560000</ele>
                <time>2017-04-30T04:27:27Z</time>
            </trkpt>
            <trkpt lon="101.030646" lat="13.026138">
                <ele>101.560000</ele>
                <time>2017-04-30T04:27:29Z</time>
            </trkpt>
            <trkpt lon="101.030614" lat="13.026071">
                <ele>101.560000</ele>
                <time>2017-04-30T04:27:42Z</time>
            </trkpt>
            <trkpt lon="101.030630" lat="13.026041">
                <ele>101.080000</ele>
                <time>2017-04-30T04:28:04Z</time>
            </trkpt>
            <trkpt lon="101.030485" lat="13.025806">
                <ele>101.080000</ele>
                <time>2017-04-30T04:28:15Z</time>
            </trkpt>
            <trkpt lon="101.030429" lat="13.025350">
                <ele>103.000000</ele>
                <time>2017-04-30T04:28:32Z</time>
            </trkpt>
            <trkpt lon="101.030473" lat="13.025102">
                <ele>104.920000</ele>
                <time>2017-04-30T04:28:46Z</time>
            </trkpt>
            <trkpt lon="101.030533" lat="13.024996">
                <ele>106.360000</ele>
                <time>2017-04-30T04:28:55Z</time>
            </trkpt>
            <trkpt lon="101.030782" lat="13.024977">
                <ele>107.810000</ele>
                <time>2017-04-30T04:29:11Z</time>
            </trkpt>
            <trkpt lon="101.031014" lat="13.024929">
                <ele>109.730000</ele>
                <time>2017-04-30T04:29:26Z</time>
            </trkpt>
            <trkpt lon="101.031026" lat="13.024919">
                <ele>109.730000</ele>
                <time>2017-04-30T04:29:27Z</time>
            </trkpt>
            <trkpt lon="101.031133" lat="13.024852">
                <ele>110.210000</ele>
                <time>2017-04-30T04:29:35Z</time>
            </trkpt>
            <trkpt lon="101.031283" lat="13.024823">
                <ele>111.650000</ele>
                <time>2017-04-30T04:29:49Z</time>
            </trkpt>
            <trkpt lon="101.031434" lat="13.024820">
                <ele>113.570000</ele>
                <time>2017-04-30T04:30:05Z</time>
            </trkpt>
            <trkpt lon="101.031499" lat="13.024816">
                <ele>114.050000</ele>
                <time>2017-04-30T04:30:29Z</time>
            </trkpt>
            <trkpt lon="101.031539" lat="13.024820">
                <ele>113.570000</ele>
                <time>2017-04-30T04:30:59Z</time>
            </trkpt>
            <trkpt lon="101.031562" lat="13.024859">
                <ele>114.050000</ele>
                <time>2017-04-30T04:31:28Z</time>
            </trkpt>
            <trkpt lon="101.031530" lat="13.024848">
                <ele>114.050000</ele>
                <time>2017-04-30T04:32:02Z</time>
            </trkpt>
            <trkpt lon="101.031477" lat="13.024819">
                <ele>114.050000</ele>
                <time>2017-04-30T04:32:36Z</time>
            </trkpt>
            <trkpt lon="101.031483" lat="13.024835">
                <ele>114.530000</ele>
                <time>2017-04-30T04:33:07Z</time>
            </trkpt>
            <trkpt lon="101.031532" lat="13.024881">
                <ele>115.010000</ele>
                <time>2017-04-30T04:33:25Z</time>
            </trkpt>
            <trkpt lon="101.031719" lat="13.025037">
                <ele>115.010000</ele>
                <time>2017-04-30T04:33:38Z</time>
            </trkpt>
            <trkpt lon="101.031879" lat="13.025080">
                <ele>117.900000</ele>
                <time>2017-04-30T04:33:50Z</time>
            </trkpt>
            <trkpt lon="101.032095" lat="13.025224">
                <ele>117.900000</ele>
                <time>2017-04-30T04:34:03Z</time>
            </trkpt>
            <trkpt lon="101.032216" lat="13.025599">
                <ele>115.010000</ele>
                <time>2017-04-30T04:34:16Z</time>
            </trkpt>
            <trkpt lon="101.032327" lat="13.026094">
                <ele>112.610000</ele>
                <time>2017-04-30T04:34:29Z</time>
            </trkpt>
            <trkpt lon="101.032332" lat="13.026161">
                <ele>112.130000</ele>
                <time>2017-04-30T04:34:31Z</time>
            </trkpt>
            <trkpt lon="101.032235" lat="13.026505">
                <ele>109.250000</ele>
                <time>2017-04-30T04:34:41Z</time>
            </trkpt>
            <trkpt lon="101.032241" lat="13.026873">
                <ele>107.810000</ele>
                <time>2017-04-30T04:34:53Z</time>
            </trkpt>
            <trkpt lon="101.032456" lat="13.027249">
                <ele>108.770000</ele>
                <time>2017-04-30T04:35:07Z</time>
            </trkpt>
            <trkpt lon="101.032702" lat="13.027356">
                <ele>110.690000</ele>
                <time>2017-04-30T04:35:21Z</time>
            </trkpt>
            <trkpt lon="101.032943" lat="13.027400">
                <ele>113.090000</ele>
                <time>2017-04-30T04:35:36Z</time>
            </trkpt>
            <trkpt lon="101.033084" lat="13.027419">
                <ele>114.050000</ele>
                <time>2017-04-30T04:35:44Z</time>
            </trkpt>
            <trkpt lon="101.033155" lat="13.027415">
                <ele>114.530000</ele>
                <time>2017-04-30T04:35:48Z</time>
            </trkpt>
            <trkpt lon="101.033396" lat="13.027297">
                <ele>114.530000</ele>
                <time>2017-04-30T04:35:59Z</time>
            </trkpt>
            <trkpt lon="101.033578" lat="13.027109">
                <ele>115.010000</ele>
                <time>2017-04-30T04:36:10Z</time>
            </trkpt>
            <trkpt lon="101.033835" lat="13.026873">
                <ele>113.090000</ele>
                <time>2017-04-30T04:36:20Z</time>
            </trkpt>
            <trkpt lon="101.034151" lat="13.026623">
                <ele>113.570000</ele>
                <time>2017-04-30T04:36:32Z</time>
            </trkpt>
            <trkpt lon="101.034427" lat="13.026394">
                <ele>114.050000</ele>
                <time>2017-04-30T04:36:44Z</time>
            </trkpt>
            <trkpt lon="101.034508" lat="13.026310">
                <ele>115.500000</ele>
                <time>2017-04-30T04:36:54Z</time>
            </trkpt>
            <trkpt lon="101.034585" lat="13.026211">
                <ele>116.940000</ele>
                <time>2017-04-30T04:37:08Z</time>
            </trkpt>
            <trkpt lon="101.034691" lat="13.026088">
                <ele>118.380000</ele>
                <time>2017-04-30T04:37:24Z</time>
            </trkpt>
            <trkpt lon="101.034769" lat="13.025956">
                <ele>118.860000</ele>
                <time>2017-04-30T04:37:42Z</time>
            </trkpt>
            <trkpt lon="101.034938" lat="13.025685">
                <ele>117.420000</ele>
                <time>2017-04-30T04:37:53Z</time>
            </trkpt>
            <trkpt lon="101.035033" lat="13.025544">
                <ele>115.500000</ele>
                <time>2017-04-30T04:37:57Z</time>
            </trkpt>
            <trkpt lon="101.035234" lat="13.025209">
                <ele>115.980000</ele>
                <time>2017-04-30T04:38:07Z</time>
            </trkpt>
            <trkpt lon="101.035461" lat="13.024891">
                <ele>117.420000</ele>
                <time>2017-04-30T04:38:25Z</time>
            </trkpt>
            <trkpt lon="101.035747" lat="13.024643">
                <ele>115.500000</ele>
                <time>2017-04-30T04:38:37Z</time>
            </trkpt>
            <trkpt lon="101.036028" lat="13.024728">
                <ele>116.460000</ele>
                <time>2017-04-30T04:38:48Z</time>
            </trkpt>
            <trkpt lon="101.036229" lat="13.024705">
                <ele>117.900000</ele>
                <time>2017-04-30T04:39:00Z</time>
            </trkpt>
            <trkpt lon="101.036400" lat="13.024583">
                <ele>120.300000</ele>
                <time>2017-04-30T04:39:15Z</time>
            </trkpt>
            <trkpt lon="101.036545" lat="13.024478">
                <ele>122.710000</ele>
                <time>2017-04-30T04:39:29Z</time>
            </trkpt>
            <trkpt lon="101.036760" lat="13.024415">
                <ele>124.630000</ele>
                <time>2017-04-30T04:39:44Z</time>
            </trkpt>
            <trkpt lon="101.036984" lat="13.024340">
                <ele>125.590000</ele>
                <time>2017-04-30T04:39:59Z</time>
            </trkpt>
            <trkpt lon="101.037068" lat="13.024362">
                <ele>125.590000</ele>
                <time>2017-04-30T04:40:04Z</time>
            </trkpt>
            <trkpt lon="101.037260" lat="13.024499">
                <ele>126.550000</ele>
                <time>2017-04-30T04:40:16Z</time>
            </trkpt>
            <trkpt lon="101.037292" lat="13.024517">
                <ele>127.030000</ele>
                <time>2017-04-30T04:40:18Z</time>
            </trkpt>
            <trkpt lon="101.037488" lat="13.024729">
                <ele>127.030000</ele>
                <time>2017-04-30T04:40:31Z</time>
            </trkpt>
            <trkpt lon="101.037751" lat="13.025011">
                <ele>126.070000</ele>
                <time>2017-04-30T04:40:45Z</time>
            </trkpt>
            <trkpt lon="101.038040" lat="13.025344">
                <ele>124.630000</ele>
                <time>2017-04-30T04:40:58Z</time>
            </trkpt>
            <trkpt lon="101.038169" lat="13.025606">
                <ele>126.070000</ele>
                <time>2017-04-30T04:41:11Z</time>
            </trkpt>
            <trkpt lon="101.038238" lat="13.025830">
                <ele>127.990000</ele>
                <time>2017-04-30T04:41:25Z</time>
            </trkpt>
            <trkpt lon="101.038254" lat="13.025885">
                <ele>127.990000</ele>
                <time>2017-04-30T04:41:29Z</time>
            </trkpt>
            <trkpt lon="101.038266" lat="13.025928">
                <ele>127.990000</ele>
                <time>2017-04-30T04:41:32Z</time>
            </trkpt>
            <trkpt lon="101.038403" lat="13.025938">
                <ele>129.430000</ele>
                <time>2017-04-30T04:41:43Z</time>
            </trkpt>
            <trkpt lon="101.038598" lat="13.025841">
                <ele>130.880000</ele>
                <time>2017-04-30T04:41:57Z</time>
            </trkpt>
            <trkpt lon="101.038759" lat="13.025744">
                <ele>131.840000</ele>
                <time>2017-04-30T04:42:08Z</time>
            </trkpt>
            <trkpt lon="101.038951" lat="13.025563">
                <ele>132.800000</ele>
                <time>2017-04-30T04:42:23Z</time>
            </trkpt>
            <trkpt lon="101.039066" lat="13.025326">
                <ele>133.280000</ele>
                <time>2017-04-30T04:42:37Z</time>
            </trkpt>
            <trkpt lon="101.039196" lat="13.025049">
                <ele>131.840000</ele>
                <time>2017-04-30T04:42:50Z</time>
            </trkpt>
            <trkpt lon="101.039278" lat="13.024993">
                <ele>133.280000</ele>
                <time>2017-04-30T04:42:57Z</time>
            </trkpt>
            <trkpt lon="101.039289" lat="13.024985">
                <ele>133.760000</ele>
                <time>2017-04-30T04:42:58Z</time>
            </trkpt>
            <trkpt lon="101.039358" lat="13.024959">
                <ele>134.240000</ele>
                <time>2017-04-30T04:43:11Z</time>
            </trkpt>
            <trkpt lon="101.039455" lat="13.024962">
                <ele>136.160000</ele>
                <time>2017-04-30T04:43:32Z</time>
            </trkpt>
            <trkpt lon="101.039581" lat="13.024985">
                <ele>138.570000</ele>
                <time>2017-04-30T04:43:47Z</time>
            </trkpt>
            <trkpt lon="101.039667" lat="13.025009">
                <ele>140.010000</ele>
                <time>2017-04-30T04:43:57Z</time>
            </trkpt>
            <trkpt lon="101.039796" lat="13.025058">
                <ele>142.410000</ele>
                <time>2017-04-30T04:44:13Z</time>
            </trkpt>
            <trkpt lon="101.039890" lat="13.025112">
                <ele>144.820000</ele>
                <time>2017-04-30T04:44:29Z</time>
            </trkpt>
            <trkpt lon="101.039944" lat="13.025092">
                <ele>145.300000</ele>
                <time>2017-04-30T04:44:48Z</time>
            </trkpt>
            <trkpt lon="101.039970" lat="13.025073">
                <ele>145.300000</ele>
                <time>2017-04-30T04:44:53Z</time>
            </trkpt>
            <trkpt lon="101.039978" lat="13.025063">
                <ele>145.300000</ele>
                <time>2017-04-30T04:44:54Z</time>
            </trkpt>
            <trkpt lon="101.039986" lat="13.025050">
                <ele>145.300000</ele>
                <time>2017-04-30T04:44:55Z</time>
            </trkpt>
            <trkpt lon="101.039993" lat="13.025035">
                <ele>145.300000</ele>
                <time>2017-04-30T04:44:56Z</time>
            </trkpt>
            <trkpt lon="101.040001" lat="13.025015">
                <ele>145.300000</ele>
                <time>2017-04-30T04:44:57Z</time>
            </trkpt>
            <trkpt lon="101.040011" lat="13.024997">
                <ele>144.820000</ele>
                <time>2017-04-30T04:44:58Z</time>
            </trkpt>
            <trkpt lon="101.040021" lat="13.024982">
                <ele>144.820000</ele>
                <time>2017-04-30T04:44:59Z</time>
            </trkpt>
            <trkpt lon="101.040029" lat="13.024969">
                <ele>144.820000</ele>
                <time>2017-04-30T04:45:00Z</time>
            </trkpt>
            <trkpt lon="101.040036" lat="13.024955">
                <ele>144.340000</ele>
                <time>2017-04-30T04:45:01Z</time>
            </trkpt>
            <trkpt lon="101.040081" lat="13.024745">
                <ele>141.450000</ele>
                <time>2017-04-30T04:45:12Z</time>
            </trkpt>
            <trkpt lon="101.040039" lat="13.024527">
                <ele>138.090000</ele>
                <time>2017-04-30T04:45:19Z</time>
            </trkpt>
            <trkpt lon="101.040059" lat="13.024261">
                <ele>135.200000</ele>
                <time>2017-04-30T04:45:29Z</time>
            </trkpt>
            <trkpt lon="101.040208" lat="13.024109">
                <ele>133.280000</ele>
                <time>2017-04-30T04:45:39Z</time>
            </trkpt>
            <trkpt lon="101.040241" lat="13.024092">
                <ele>133.280000</ele>
                <time>2017-04-30T04:45:41Z</time>
            </trkpt>
            <trkpt lon="101.040584" lat="13.023960">
                <ele>131.840000</ele>
                <time>2017-04-30T04:45:52Z</time>
            </trkpt>
            <trkpt lon="101.041007" lat="13.023876">
                <ele>129.920000</ele>
                <time>2017-04-30T04:46:03Z</time>
            </trkpt>
            <trkpt lon="101.041222" lat="13.023956">
                <ele>131.840000</ele>
                <time>2017-04-30T04:46:14Z</time>
            </trkpt>
            <trkpt lon="101.041361" lat="13.024077">
                <ele>133.280000</ele>
                <time>2017-04-30T04:46:26Z</time>
            </trkpt>
            <trkpt lon="101.041455" lat="13.024195">
                <ele>135.200000</ele>
                <time>2017-04-30T04:46:38Z</time>
            </trkpt>
            <trkpt lon="101.041472" lat="13.024215">
                <ele>135.200000</ele>
                <time>2017-04-30T04:46:40Z</time>
            </trkpt>
            <trkpt lon="101.041478" lat="13.024226">
                <ele>135.680000</ele>
                <time>2017-04-30T04:46:41Z</time>
            </trkpt>
            <trkpt lon="101.041531" lat="13.024285">
                <ele>136.160000</ele>
                <time>2017-04-30T04:46:48Z</time>
            </trkpt>
            <trkpt lon="101.041679" lat="13.024185">
                <ele>134.720000</ele>
                <time>2017-04-30T04:46:55Z</time>
            </trkpt>
            <trkpt lon="101.042101" lat="13.024023">
                <ele>132.320000</ele>
                <time>2017-04-30T04:47:08Z</time>
            </trkpt>
            <trkpt lon="101.042428" lat="13.024066">
                <ele>132.320000</ele>
                <time>2017-04-30T04:47:19Z</time>
            </trkpt>
            <trkpt lon="101.042814" lat="13.024113">
                <ele>129.430000</ele>
                <time>2017-04-30T04:47:35Z</time>
            </trkpt>
            <trkpt lon="101.043007" lat="13.024172">
                <ele>126.550000</ele>
                <time>2017-04-30T04:47:45Z</time>
            </trkpt>
            <trkpt lon="101.043092" lat="13.024172">
                <ele>124.630000</ele>
                <time>2017-04-30T04:47:49Z</time>
            </trkpt>
            <trkpt lon="101.043297" lat="13.024288">
                <ele>121.740000</ele>
                <time>2017-04-30T04:47:57Z</time>
            </trkpt>
            <trkpt lon="101.043530" lat="13.024609">
                <ele>121.740000</ele>
                <time>2017-04-30T04:48:09Z</time>
            </trkpt>
            <trkpt lon="101.043647" lat="13.024622">
                <ele>120.300000</ele>
                <time>2017-04-30T04:48:15Z</time>
            </trkpt>
            <trkpt lon="101.043694" lat="13.024551">
                <ele>118.860000</ele>
                <time>2017-04-30T04:48:19Z</time>
            </trkpt>
            <trkpt lon="101.043717" lat="13.024529">
                <ele>118.380000</ele>
                <time>2017-04-30T04:48:20Z</time>
            </trkpt>
            <trkpt lon="101.043739" lat="13.024514">
                <ele>117.900000</ele>
                <time>2017-04-30T04:48:21Z</time>
            </trkpt>
            <trkpt lon="101.043766" lat="13.024499">
                <ele>117.900000</ele>
                <time>2017-04-30T04:48:22Z</time>
            </trkpt>
            <trkpt lon="101.043794" lat="13.024482">
                <ele>117.420000</ele>
                <time>2017-04-30T04:48:23Z</time>
            </trkpt>
            <trkpt lon="101.044059" lat="13.024287">
                <ele>114.050000</ele>
                <time>2017-04-30T04:48:35Z</time>
            </trkpt>
            <trkpt lon="101.044374" lat="13.024048">
                <ele>111.650000</ele>
                <time>2017-04-30T04:48:48Z</time>
            </trkpt>
            <trkpt lon="101.044771" lat="13.023812">
                <ele>108.770000</ele>
                <time>2017-04-30T04:49:00Z</time>
            </trkpt>
            <trkpt lon="101.044999" lat="13.023661">
                <ele>106.840000</ele>
                <time>2017-04-30T04:49:08Z</time>
            </trkpt>
            <trkpt lon="101.045364" lat="13.023746">
                <ele>103.960000</ele>
                <time>2017-04-30T04:49:19Z</time>
            </trkpt>
            <trkpt lon="101.045811" lat="13.023845">
                <ele>102.040000</ele>
                <time>2017-04-30T04:49:33Z</time>
            </trkpt>
            <trkpt lon="101.046133" lat="13.023614">
                <ele>101.560000</ele>
                <time>2017-04-30T04:49:44Z</time>
            </trkpt>
            <trkpt lon="101.046822" lat="13.023427">
                <ele>102.040000</ele>
                <time>2017-04-30T04:50:02Z</time>
            </trkpt>
            <trkpt lon="101.047229" lat="13.023433">
                <ele>102.520000</ele>
                <time>2017-04-30T04:50:15Z</time>
            </trkpt>
            <trkpt lon="101.047490" lat="13.023704">
                <ele>103.480000</ele>
                <time>2017-04-30T04:50:27Z</time>
            </trkpt>
            <trkpt lon="101.047802" lat="13.024202">
                <ele>103.480000</ele>
                <time>2017-04-30T04:50:42Z</time>
            </trkpt>
            <trkpt lon="101.048065" lat="13.024681">
                <ele>102.520000</ele>
                <time>2017-04-30T04:50:54Z</time>
            </trkpt>
            <trkpt lon="101.048222" lat="13.025238">
                <ele>102.040000</ele>
                <time>2017-04-30T04:51:08Z</time>
            </trkpt>
            <trkpt lon="101.048232" lat="13.025282">
                <ele>102.040000</ele>
                <time>2017-04-30T04:51:09Z</time>
            </trkpt>
            <trkpt lon="101.048247" lat="13.025326">
                <ele>101.560000</ele>
                <time>2017-04-30T04:51:10Z</time>
            </trkpt>
            <trkpt lon="101.048282" lat="13.025412">
                <ele>102.040000</ele>
                <time>2017-04-30T04:51:12Z</time>
            </trkpt>
            <trkpt lon="101.048308" lat="13.025453">
                <ele>102.040000</ele>
                <time>2017-04-30T04:51:13Z</time>
            </trkpt>
            <trkpt lon="101.048342" lat="13.025492">
                <ele>102.040000</ele>
                <time>2017-04-30T04:51:14Z</time>
            </trkpt>
            <trkpt lon="101.048380" lat="13.025524">
                <ele>102.040000</ele>
                <time>2017-04-30T04:51:15Z</time>
            </trkpt>
            <trkpt lon="101.048425" lat="13.025552">
                <ele>101.560000</ele>
                <time>2017-04-30T04:51:16Z</time>
            </trkpt>
            <trkpt lon="101.048474" lat="13.025577">
                <ele>101.560000</ele>
                <time>2017-04-30T04:51:17Z</time>
            </trkpt>
            <trkpt lon="101.049284" lat="13.025783">
                <ele>101.080000</ele>
                <time>2017-04-30T04:51:34Z</time>
            </trkpt>
            <trkpt lon="101.049328" lat="13.025788">
                <ele>101.560000</ele>
                <time>2017-04-30T04:51:35Z</time>
            </trkpt>
            <trkpt lon="101.049851" lat="13.025700">
                <ele>101.080000</ele>
                <time>2017-04-30T04:51:48Z</time>
            </trkpt>
            <trkpt lon="101.050014" lat="13.025906">
                <ele>99.150000</ele>
                <time>2017-04-30T04:51:57Z</time>
            </trkpt>
            <trkpt lon="101.050145" lat="13.026346">
                <ele>98.190000</ele>
                <time>2017-04-30T04:52:08Z</time>
            </trkpt>
            <trkpt lon="101.050458" lat="13.026637">
                <ele>97.710000</ele>
                <time>2017-04-30T04:52:20Z</time>
            </trkpt>
            <trkpt lon="101.050739" lat="13.026399">
                <ele>98.190000</ele>
                <time>2017-04-30T04:52:32Z</time>
            </trkpt>
            <trkpt lon="101.050946" lat="13.026009">
                <ele>99.150000</ele>
                <time>2017-04-30T04:52:47Z</time>
            </trkpt>
            <trkpt lon="101.051120" lat="13.025570">
                <ele>100.110000</ele>
                <time>2017-04-30T04:53:03Z</time>
            </trkpt>
            <trkpt lon="101.051348" lat="13.025016">
                <ele>100.600000</ele>
                <time>2017-04-30T04:53:20Z</time>
            </trkpt>
            <trkpt lon="101.051536" lat="13.024807">
                <ele>100.110000</ele>
                <time>2017-04-30T04:53:31Z</time>
            </trkpt>
            <trkpt lon="101.051603" lat="13.024659">
                <ele>100.110000</ele>
                <time>2017-04-30T04:53:38Z</time>
            </trkpt>
            <trkpt lon="101.051618" lat="13.024647">
                <ele>100.600000</ele>
                <time>2017-04-30T04:53:39Z</time>
            </trkpt>
            <trkpt lon="101.051630" lat="13.024630">
                <ele>100.600000</ele>
                <time>2017-04-30T04:53:40Z</time>
            </trkpt>
            <trkpt lon="101.051640" lat="13.024615">
                <ele>100.110000</ele>
                <time>2017-04-30T04:53:41Z</time>
            </trkpt>
            <trkpt lon="101.051651" lat="13.024607">
                <ele>100.600000</ele>
                <time>2017-04-30T04:53:42Z</time>
            </trkpt>
            <trkpt lon="101.051884" lat="13.024519">
                <ele>102.040000</ele>
                <time>2017-04-30T04:53:58Z</time>
            </trkpt>
            <trkpt lon="101.052024" lat="13.024469">
                <ele>103.000000</ele>
                <time>2017-04-30T04:54:06Z</time>
            </trkpt>
            <trkpt lon="101.052271" lat="13.024328">
                <ele>103.480000</ele>
                <time>2017-04-30T04:54:22Z</time>
            </trkpt>
            <trkpt lon="101.052525" lat="13.024192">
                <ele>104.440000</ele>
                <time>2017-04-30T04:54:37Z</time>
            </trkpt>
            <trkpt lon="101.052687" lat="13.024000">
                <ele>104.920000</ele>
                <time>2017-04-30T04:54:51Z</time>
            </trkpt>
            <trkpt lon="101.052845" lat="13.023764">
                <ele>106.360000</ele>
                <time>2017-04-30T04:55:06Z</time>
            </trkpt>
            <trkpt lon="101.052940" lat="13.023649">
                <ele>106.840000</ele>
                <time>2017-04-30T04:55:14Z</time>
            </trkpt>
            <trkpt lon="101.052980" lat="13.023574">
                <ele>106.840000</ele>
                <time>2017-04-30T04:55:19Z</time>
            </trkpt>
            <trkpt lon="101.052924" lat="13.023322">
                <ele>107.810000</ele>
                <time>2017-04-30T04:55:33Z</time>
            </trkpt>
            <trkpt lon="101.052723" lat="13.023072">
                <ele>107.320000</ele>
                <time>2017-04-30T04:55:44Z</time>
            </trkpt>
            <trkpt lon="101.052597" lat="13.022703">
                <ele>107.320000</ele>
                <time>2017-04-30T04:55:58Z</time>
            </trkpt>
            <trkpt lon="101.052656" lat="13.022466">
                <ele>107.810000</ele>
                <time>2017-04-30T04:56:10Z</time>
            </trkpt>
            <trkpt lon="101.052846" lat="13.022205">
                <ele>109.250000</ele>
                <time>2017-04-30T04:56:26Z</time>
            </trkpt>
            <trkpt lon="101.052946" lat="13.021906">
                <ele>109.730000</ele>
                <time>2017-04-30T04:56:42Z</time>
            </trkpt>
            <trkpt lon="101.053195" lat="13.021746">
                <ele>110.210000</ele>
                <time>2017-04-30T04:56:57Z</time>
            </trkpt>
            <trkpt lon="101.053280" lat="13.021714">
                <ele>110.690000</ele>
                <time>2017-04-30T04:57:02Z</time>
            </trkpt>
            <trkpt lon="101.053425" lat="13.021672">
                <ele>111.170000</ele>
                <time>2017-04-30T04:57:10Z</time>
            </trkpt>
            <trkpt lon="101.053675" lat="13.021600">
                <ele>112.610000</ele>
                <time>2017-04-30T04:57:25Z</time>
            </trkpt>
            <trkpt lon="101.054040" lat="13.021556">
                <ele>114.530000</ele>
                <time>2017-04-30T04:57:45Z</time>
            </trkpt>
            <trkpt lon="101.054376" lat="13.021494">
                <ele>115.500000</ele>
                <time>2017-04-30T04:58:00Z</time>
            </trkpt>
            <trkpt lon="101.054762" lat="13.021382">
                <ele>116.460000</ele>
                <time>2017-04-30T04:58:18Z</time>
            </trkpt>
            <trkpt lon="101.054799" lat="13.021450">
                <ele>116.460000</ele>
                <time>2017-04-30T04:58:23Z</time>
            </trkpt>
            <trkpt lon="101.054848" lat="13.021785">
                <ele>115.980000</ele>
                <time>2017-04-30T04:58:36Z</time>
            </trkpt>
            <trkpt lon="101.054889" lat="13.022276">
                <ele>114.530000</ele>
                <time>2017-04-30T04:58:51Z</time>
            </trkpt>
            <trkpt lon="101.054887" lat="13.022989">
                <ele>113.570000</ele>
                <time>2017-04-30T04:59:09Z</time>
            </trkpt>
            <trkpt lon="101.054849" lat="13.023502">
                <ele>112.130000</ele>
                <time>2017-04-30T04:59:23Z</time>
            </trkpt>
            <trkpt lon="101.054756" lat="13.023977">
                <ele>110.690000</ele>
                <time>2017-04-30T04:59:37Z</time>
            </trkpt>
            <trkpt lon="101.054639" lat="13.024642">
                <ele>108.770000</ele>
                <time>2017-04-30T04:59:55Z</time>
            </trkpt>
            <trkpt lon="101.054568" lat="13.025115">
                <ele>106.360000</ele>
                <time>2017-04-30T05:00:09Z</time>
            </trkpt>
            <trkpt lon="101.054570" lat="13.025232">
                <ele>105.880000</ele>
                <time>2017-04-30T05:00:21Z</time>
            </trkpt>
            <trkpt lon="101.054524" lat="13.025394">
                <ele>106.360000</ele>
                <time>2017-04-30T05:00:33Z</time>
            </trkpt>
            <trkpt lon="101.054456" lat="13.025490">
                <ele>105.880000</ele>
                <time>2017-04-30T05:00:40Z</time>
            </trkpt>
            <trkpt lon="101.054296" lat="13.025798">
                <ele>104.920000</ele>
                <time>2017-04-30T05:00:53Z</time>
            </trkpt>
            <trkpt lon="101.054009" lat="13.026093">
                <ele>103.960000</ele>
                <time>2017-04-30T05:01:06Z</time>
            </trkpt>
            <trkpt lon="101.053536" lat="13.026682">
                <ele>102.040000</ele>
                <time>2017-04-30T05:01:27Z</time>
            </trkpt>
            <trkpt lon="101.053421" lat="13.026925">
                <ele>101.080000</ele>
                <time>2017-04-30T05:01:36Z</time>
            </trkpt>
            <trkpt lon="101.053438" lat="13.026964">
                <ele>100.600000</ele>
                <time>2017-04-30T05:01:38Z</time>
            </trkpt>
            <trkpt lon="101.053455" lat="13.026982">
                <ele>101.080000</ele>
                <time>2017-04-30T05:01:39Z</time>
            </trkpt>
            <trkpt lon="101.053479" lat="13.026995">
                <ele>100.600000</ele>
                <time>2017-04-30T05:01:40Z</time>
            </trkpt>
            <trkpt lon="101.053508" lat="13.027002">
                <ele>100.600000</ele>
                <time>2017-04-30T05:01:41Z</time>
            </trkpt>
            <trkpt lon="101.053540" lat="13.027009">
                <ele>100.600000</ele>
                <time>2017-04-30T05:01:42Z</time>
            </trkpt>
            <trkpt lon="101.053970" lat="13.027139">
                <ele>99.630000</ele>
                <time>2017-04-30T05:01:54Z</time>
            </trkpt>
            <trkpt lon="101.054450" lat="13.027486">
                <ele>97.710000</ele>
                <time>2017-04-30T05:02:08Z</time>
            </trkpt>
            <trkpt lon="101.054494" lat="13.027507">
                <ele>97.710000</ele>
                <time>2017-04-30T05:02:09Z</time>
            </trkpt>
            <trkpt lon="101.054541" lat="13.027521">
                <ele>97.230000</ele>
                <time>2017-04-30T05:02:10Z</time>
            </trkpt>
            <trkpt lon="101.054589" lat="13.027531">
                <ele>97.230000</ele>
                <time>2017-04-30T05:02:11Z</time>
            </trkpt>
            <trkpt lon="101.054639" lat="13.027540">
                <ele>97.230000</ele>
                <time>2017-04-30T05:02:12Z</time>
            </trkpt>
            <trkpt lon="101.055450" lat="13.027561">
                <ele>96.270000</ele>
                <time>2017-04-30T05:02:29Z</time>
            </trkpt>
            <trkpt lon="101.055864" lat="13.027533">
                <ele>97.710000</ele>
                <time>2017-04-30T05:02:42Z</time>
            </trkpt>
            <trkpt lon="101.056279" lat="13.027408">
                <ele>100.110000</ele>
                <time>2017-04-30T05:02:57Z</time>
            </trkpt>
            <trkpt lon="101.056596" lat="13.027294">
                <ele>101.080000</ele>
                <time>2017-04-30T05:03:11Z</time>
            </trkpt>
            <trkpt lon="101.056974" lat="13.027159">
                <ele>103.000000</ele>
                <time>2017-04-30T05:03:27Z</time>
            </trkpt>
            <trkpt lon="101.057114" lat="13.027189">
                <ele>102.520000</ele>
                <time>2017-04-30T05:03:31Z</time>
            </trkpt>
            <trkpt lon="101.057823" lat="13.027425">
                <ele>99.150000</ele>
                <time>2017-04-30T05:03:42Z</time>
            </trkpt>
            <trkpt lon="101.058204" lat="13.027520">
                <ele>100.110000</ele>
                <time>2017-04-30T05:03:50Z</time>
            </trkpt>
            <trkpt lon="101.058390" lat="13.027569">
                <ele>101.080000</ele>
                <time>2017-04-30T05:03:55Z</time>
            </trkpt>
            <trkpt lon="101.058702" lat="13.027666">
                <ele>103.480000</ele>
                <time>2017-04-30T05:04:10Z</time>
            </trkpt>
            <trkpt lon="101.058985" lat="13.027826">
                <ele>104.920000</ele>
                <time>2017-04-30T05:04:26Z</time>
            </trkpt>
            <trkpt lon="101.059279" lat="13.027955">
                <ele>106.840000</ele>
                <time>2017-04-30T05:04:42Z</time>
            </trkpt>
            <trkpt lon="101.059567" lat="13.028044">
                <ele>108.770000</ele>
                <time>2017-04-30T05:04:57Z</time>
            </trkpt>
            <trkpt lon="101.059916" lat="13.028070">
                <ele>110.690000</ele>
                <time>2017-04-30T05:05:15Z</time>
            </trkpt>
            <trkpt lon="101.060210" lat="13.028119">
                <ele>113.090000</ele>
                <time>2017-04-30T05:05:30Z</time>
            </trkpt>
            <trkpt lon="101.060496" lat="13.028125">
                <ele>115.010000</ele>
                <time>2017-04-30T05:05:45Z</time>
            </trkpt>
            <trkpt lon="101.060767" lat="13.028041">
                <ele>115.500000</ele>
                <time>2017-04-30T05:05:58Z</time>
            </trkpt>
            <trkpt lon="101.060788" lat="13.028025">
                <ele>115.500000</ele>
                <time>2017-04-30T05:06:15Z</time>
            </trkpt>
            <trkpt lon="101.060816" lat="13.028054">
                <ele>115.500000</ele>
                <time>2017-04-30T05:06:42Z</time>
            </trkpt>
            <trkpt lon="101.060824" lat="13.028060">
                <ele>115.500000</ele>
                <time>2017-04-30T05:06:49Z</time>
            </trkpt>
            <trkpt lon="101.060880" lat="13.028210">
                <ele>115.500000</ele>
                <time>2017-04-30T05:07:01Z</time>
            </trkpt>
            <trkpt lon="101.060888" lat="13.028219">
                <ele>115.500000</ele>
                <time>2017-04-30T05:07:02Z</time>
            </trkpt>
            <trkpt lon="101.060909" lat="13.028211">
                <ele>115.500000</ele>
                <time>2017-04-30T05:07:16Z</time>
            </trkpt>
            <trkpt lon="101.060912" lat="13.028208">
                <ele>115.500000</ele>
                <time>2017-04-30T05:07:19Z</time>
            </trkpt>
            <trkpt lon="101.061190" lat="13.028099">
                <ele>115.980000</ele>
                <time>2017-04-30T05:07:32Z</time>
            </trkpt>
            <trkpt lon="101.061848" lat="13.027998">
                <ele>115.500000</ele>
                <time>2017-04-30T05:07:48Z</time>
            </trkpt>
            <trkpt lon="101.062858" lat="13.027981">
                <ele>116.940000</ele>
                <time>2017-04-30T05:08:09Z</time>
            </trkpt>
            <trkpt lon="101.063712" lat="13.027961">
                <ele>118.380000</ele>
                <time>2017-04-30T05:08:27Z</time>
            </trkpt>
            <trkpt lon="101.064459" lat="13.027947">
                <ele>119.820000</ele>
                <time>2017-04-30T05:08:43Z</time>
            </trkpt>
            <trkpt lon="101.065172" lat="13.027827">
                <ele>121.260000</ele>
                <time>2017-04-30T05:08:59Z</time>
            </trkpt>
            <trkpt lon="101.065763" lat="13.027476">
                <ele>122.710000</ele>
                <time>2017-04-30T05:09:15Z</time>
            </trkpt>
            <trkpt lon="101.065878" lat="13.027381">
                <ele>123.190000</ele>
                <time>2017-04-30T05:09:20Z</time>
            </trkpt>
            <trkpt lon="101.066029" lat="13.027501">
                <ele>121.260000</ele>
                <time>2017-04-30T05:09:25Z</time>
            </trkpt>
            <trkpt lon="101.066257" lat="13.027700">
                <ele>120.300000</ele>
                <time>2017-04-30T05:09:30Z</time>
            </trkpt>
            <trkpt lon="101.066538" lat="13.028001">
                <ele>119.340000</ele>
                <time>2017-04-30T05:09:42Z</time>
            </trkpt>
            <trkpt lon="101.066661" lat="13.028473">
                <ele>119.340000</ele>
                <time>2017-04-30T05:09:56Z</time>
            </trkpt>
            <trkpt lon="101.066882" lat="13.028917">
                <ele>120.780000</ele>
                <time>2017-04-30T05:10:11Z</time>
            </trkpt>
            <trkpt lon="101.066847" lat="13.029073">
                <ele>121.740000</ele>
                <time>2017-04-30T05:10:18Z</time>
            </trkpt>
            <trkpt lon="101.066751" lat="13.029124">
                <ele>122.220000</ele>
                <time>2017-04-30T05:10:22Z</time>
            </trkpt>
            <trkpt lon="101.066324" lat="13.029137">
                <ele>121.740000</ele>
                <time>2017-04-30T05:10:33Z</time>
            </trkpt>
            <trkpt lon="101.066156" lat="13.029353">
                <ele>122.220000</ele>
                <time>2017-04-30T05:10:40Z</time>
            </trkpt>
            <trkpt lon="101.065966" lat="13.030015">
                <ele>122.710000</ele>
                <time>2017-04-30T05:10:57Z</time>
            </trkpt>
            <trkpt lon="101.066017" lat="13.030226">
                <ele>123.190000</ele>
                <time>2017-04-30T05:11:08Z</time>
            </trkpt>
            <trkpt lon="101.066027" lat="13.030240">
                <ele>123.190000</ele>
                <time>2017-04-30T05:11:14Z</time>
            </trkpt>
            <trkpt lon="101.066023" lat="13.030267">
                <ele>123.190000</ele>
                <time>2017-04-30T05:11:16Z</time>
            </trkpt>
            <trkpt lon="101.066019" lat="13.030407">
                <ele>123.190000</ele>
                <time>2017-04-30T05:11:22Z</time>
            </trkpt>
            <trkpt lon="101.066016" lat="13.030452">
                <ele>123.190000</ele>
                <time>2017-04-30T05:11:24Z</time>
            </trkpt>
            <trkpt lon="101.066089" lat="13.030479">
                <ele>123.670000</ele>
                <time>2017-04-30T05:11:29Z</time>
            </trkpt>
            <trkpt lon="101.066266" lat="13.030449">
                <ele>123.670000</ele>
                <time>2017-04-30T05:11:42Z</time>
            </trkpt>
            <trkpt lon="101.066299" lat="13.030485">
                <ele>123.670000</ele>
                <time>2017-04-30T05:12:05Z</time>
            </trkpt>
            <trkpt lon="101.066280" lat="13.030513">
                <ele>123.670000</ele>
                <time>2017-04-30T05:12:37Z</time>
            </trkpt>
            <trkpt lon="101.066251" lat="13.030472">
                <ele>124.150000</ele>
                <time>2017-04-30T05:13:06Z</time>
            </trkpt>
            <trkpt lon="101.066276" lat="13.030480">
                <ele>124.150000</ele>
                <time>2017-04-30T05:13:29Z</time>
            </trkpt>
        </trkseg>
    </trk>
</gpx>